Su Yang Bo 001 — 000000 — position and weather

sailwx.info

Track history (hours):
 
Tides and Currents Weather Stations Pressure Air Temp Water Temp Dewpoint Dewpoint Depression Visibility Wind Speed Wind Dir Waves Ship Positions

Su Yang Bo 001

Last reported at 2018-Jan-21 22:30 UTC. Time now 2018-Jan-21 22:37 UTC.
Position N 24°18' E 118°20'.

Length 50 m.

Type: Towing. MMSI: 200002069.

Date/timePositionNaut miles runAvg speedWind from/ knotsBaromVisibWave heightAir tempDewpointWater temp
2018-Jan-21 22:30N 24°18' E 118°20'4612058.1
2018-Jan-21 22:16N 31°30' E 121°24'4611715.6
2018-Jan-21 22:00N 24°18' E 118°22'761128.5
2018-Jan-21 21:56N 23°34' E 119°29'4887543.5
2018-Jan-21 21:52N 31°32' E 121°20'4621198.7
2018-Jan-21 21:29N 24°18' E 118°19'762349.9
2018-Jan-21 21:27N 23°37' E 119°28'4833387.0
2018-Jan-21 21:19N 31°28' E 121°25'14269.8
2018-Jan-21 21:16N 31°15' E 121°30'4491748.6
2018-Jan-21 21:00N 24°18' E 118°21'44846120.3
2018-Jan-21 21:00N 31°14' E 121°29'448912.8
2018-Jan-21 20:30N 24°18' E 118°23'46118845.1
2018-Jan-21 20:29N 31°30' E 121°24'4148.4
2018-Jan-21 20:27N 31°32' E 121°20'20396.2
2018-Jan-21 20:24N 31°14' E 121°29'4481126.8
2018-Jan-21 20:00N 24°18' E 118°21'2 3.6
2018-Jan-21 19:29N 24°18' E 118°19'4622680.1
2018-Jan-21 19:19N 31°30' E 121°24'4621482.8
2018-Jan-21 19:00N 24°18' E 118°18'3 6.2
2018-Jan-21 18:30N 24°18' E 118°14'4621425.5
2018-Jan-21 18:11N 31°28' E 121°25'686.2
2018-Jan-21 18:06N 31°32' E 121°20'4654606.8
2018-Jan-21 18:00N 24°19' E 118°10'4633599.0
2018-Jan-21 17:53N 31°28' E 121°25'2420.5
2018-Jan-21 16:43N 31°10' E 121°07'0 0.0
2018-Jan-21 16:30N 31°10' E 121°07'24264.3
2018-Jan-21 16:25N 31°28' E 121°25'0 0.0
2018-Jan-21 15:59N 31°28' E 121°25'24667.4
2018-Jan-21 15:57N 31°10' E 121°07'2447.6
2018-Jan-21 15:27N 31°28' E 121°25'0 0.0
2018-Jan-21 15:00N 31°28' E 121°25'0 0.0
2018-Jan-21 14:23N 31°28' E 121°25'0 0.0
2018-Jan-21 13:58N 31°28' E 121°25'0 0.0
2018-Jan-21 13:29N 31°28' E 121°25'947.9
2018-Jan-21 13:18N 31°35' E 121°19'1 3.4
2018-Jan-21 12:56N 31°34' E 121°20'739.3
2018-Jan-21 12:44N 31°28' E 121°25'624.8
2018-Jan-21 12:30N 31°33' E 121°21'640.4
2018-Jan-21 12:22N 31°28' E 121°25'0 0.0
2018-Jan-21 12:00N 31°28' E 121°25'316.0
2018-Jan-21 11:49N 31°30' E 121°22'274.0
2018-Jan-21 11:48N 31°30' E 121°24'2 5.1
2018-Jan-21 11:28N 31°28' E 121°25'224.5
2018-Jan-21 11:24N 31°30' E 121°24'2 3.4
2018-Jan-21 10:54N 31°28' E 121°25'224.5
2018-Jan-21 10:50N 31°30' E 121°24'2 4.9
2018-Jan-21 10:29N 31°28' E 121°25'117.5
2018-Jan-21 10:26N 31°29' E 121°24'1 2.7
2018-Jan-21 10:11N 31°30' E 121°24'0 0.3
2018-Jan-21 09:59N 31°30' E 121°24'2288.7
2018-Jan-21 09:58N 31°28' E 121°25'0 0.0
2018-Jan-21 09:30N 31°28' E 121°25'0 0.0
2018-Jan-21 09:00N 31°28' E 121°25'538677.9
2018-Jan-21 08:13N 22°33' E 120°20'5385664.9
2018-Jan-21 08:07N 31°28' E 121°25'5384843.6
2018-Jan-21 08:00N 22°33' E 120°20'53810763.6
2018-Jan-21 07:57N 31°28' E 121°25'5381192.6
2018-Jan-21 07:30N 22°34' E 120°17'53924574.6
2018-Jan-21 07:29N 31°30' E 121°24'2320.2
2018-Jan-21 07:29N 31°28' E 121°25'2 3.7
2018-Jan-21 07:00N 31°30' E 121°24'2122.8
2018-Jan-21 06:59N 31°28' E 121°25'537214705.2
2018-Jan-21 06:59N 22°35' E 120°16'5371232.4
2018-Jan-21 06:33N 31°29' E 121°26'123.2
2018-Jan-21 06:30N 31°28' E 121°25'53997096.9
2018-Jan-21 06:30N 22°32' E 120°17'54012302.7
2018-Jan-21 06:27N 31°29' E 121°25'1 1.5
2018-Jan-21 05:59N 31°28' E 121°25'5421950849.9
2018-Jan-21 05:59N 22°30' E 120°17'544217414.6
2018-Jan-21 05:59N 31°30' E 121°24'184.8
2018-Jan-21 05:59N 31°30' E 121°23'1262.0
2018-Jan-21 05:47N 31°39' E 121°14'12127.4
2018-Jan-21 05:41N 31°30' E 121°23'316.1
2018-Jan-21 05:30N 31°28' E 121°25'43532.1
2018-Jan-21 05:30N 31°31' E 121°21'54436272.6
2018-Jan-21 05:29N 22°30' E 120°17'550104266.8
2018-Jan-21 05:29N 31°38' E 121°16'1225.5
2018-Jan-21 05:00N 31°28' E 121°25'9658.2
2018-Jan-21 05:00N 31°35' E 121°19'544326620.5
2018-Jan-21 04:59N 22°33' E 120°19'54215372.9
2018-Jan-21 04:57N 31°33' E 121°20'539.5
2018-Jan-21 04:50N 31°30' E 121°24'722.8
2018-Jan-21 04:30N 31°35' E 121°18'41106.3
2018-Jan-21 04:30N 31°33' E 121°21'59285.3
2018-Jan-21 04:30N 31°28' E 121°25'6228.5
2018-Jan-21 04:29N 31°32' E 121°20'428.9
2018-Jan-21 04:20N 31°30' E 121°24'619.7
2018-Jan-21 04:00N 31°34' E 121°18'85636.7
2018-Jan-21 04:00N 31°28' E 121°25'3226.4
2018-Jan-21 04:00N 31°31' E 121°25'11120.7
2018-Jan-21 04:00N 31°30' E 121°24'111.5
2018-Jan-21 03:57N 31°29' E 121°24'12937.7
2018-Jan-21 03:56N 31°38' E 121°14'4694371.7
2018-Jan-21 03:49N 24°19' E 118°07'4681405.8
2018-Jan-21 03:29N 31°36' E 121°16'4689906.8
2018-Jan-21 03:27N 24°19' E 118°07'46413816.4
2018-Jan-21 03:25N 31°31' E 121°22'247.2
2018-Jan-21 03:22N 31°30' E 121°24'2 9.0
2018-Jan-21 03:11N 31°28' E 121°25'0 0.0
2018-Jan-21 02:57N 31°28' E 121°25'222.1
2018-Jan-21 02:53N 31°30' E 121°24'5148.8
2018-Jan-21 02:51N 31°33' E 121°19'522.8
2018-Jan-21 02:38N 31°29' E 121°23'214.6
2018-Jan-21 02:30N 31°28' E 121°25'3109.5
2018-Jan-21 02:29N 31°30' E 121°23'772.8
2018-Jan-21 02:23N 31°35' E 121°17'82563.0
2018-Jan-21 02:23N 31°29' E 121°23'117.4
2018-Jan-21 02:19N 31°30' E 121°24'2 5.3
2018-Jan-21 02:00N 31°28' E 121°25'2289.4
2018-Jan-21 01:59N 31°30' E 121°24'1223.9
2018-Jan-21 01:59N 31°29' E 121°23'2 3.8
2018-Jan-21 01:30N 31°28' E 121°25'2 8.4
2018-Jan-21 01:18N 31°30' E 121°24'12225.7
2018-Jan-21 01:15N 31°38' E 121°14'1451.3
2018-Jan-21 00:59N 31°28' E 121°25'141874.6
2018-Jan-21 00:58N 31°38' E 121°14'124357.0
2018-Jan-21 00:58N 31°30' E 121°24'1327.8
2018-Jan-21 00:30N 31°39' E 121°14'15463.9
2018-Jan-21 00:28N 31°28' E 121°25'2355.1
2018-Jan-21 00:28N 31°30' E 121°24'110.7
2018-Jan-21 00:21N 31°29' E 121°23'2 5.3
2018-Jan-21 00:00N 31°28' E 121°25'242.5
2018-Jan-20 23:58N 31°30' E 121°24'13133.6
2018-Jan-20 23:52N 31°40' E 121°14'1541.4
2018-Jan-20 23:30N 31°28' E 121°25'15268.4
2018-Jan-20 23:27N 31°40' E 121°14'13334.4
2018-Jan-20 23:24N 31°29' E 121°23'112.4
2018-Jan-20 23:19N 31°30' E 121°24'4871896.2
2018-Jan-20 23:03N 23°34' E 119°29'48610166.5
2018-Jan-20 23:00N 31°28' E 121°25'210.0
2018-Jan-20 22:50N 31°30' E 121°24'151.1
2018-Jan-20 22:49N 31°29' E 121°23'48714734.7
2018-Jan-20 22:47N 23°33' E 119°31'4861757.6
2018-Jan-20 22:30N 31°28' E 121°25'48530627.9
2018-Jan-20 22:29N 23°34' E 119°33'48622450.7
2018-Jan-20 22:28N 31°30' E 121°24'4861033.5
2018-Jan-20 22:00N 23°34' E 119°35'48613662.3
2018-Jan-20 21:58N 31°30' E 121°24'2260.6
2018-Jan-20 21:57N 31°28' E 121°25'2 4.1
2018-Jan-20 21:30N 31°29' E 121°23'2353.9
2018-Jan-20 21:30N 31°28' E 121°25'0 0.0
2018-Jan-20 20:59N 31°28' E 121°25'2 6.1
2018-Jan-20 20:41N 31°29' E 121°23'132250.8
2018-Jan-20 20:41N 31°40' E 121°14'13274.0
2018-Jan-20 20:38N 31°30' E 121°24'214.3
2018-Jan-20 20:30N 31°28' E 121°25'217.6
2018-Jan-20 20:24N 31°28' E 121°27'46366676.8
2018-Jan-20 20:24N 24°15' E 118°21'46411605.2
2018-Jan-20 20:22N 31°30' E 121°24'4641304.7
2018-Jan-20 20:00N 24°16' E 118°18'463104066.2
2018-Jan-20 20:00N 31°28' E 121°25'114.5
2018-Jan-20 19:57N 31°29' E 121°25'168.0
2018-Jan-20 19:56N 31°30' E 121°24'13207.6
2018-Jan-20 19:53N 31°39' E 121°13'4681254.6
2018-Jan-20 19:30N 24°18' E 118°14'463208411.7
2018-Jan-20 19:30N 31°30' E 121°23'393.8
2018-Jan-20 19:28N 31°28' E 121°25'245.3
2018-Jan-20 19:26N 31°30' E 121°24'131111.2
2018-Jan-20 19:25N 31°39' E 121°13'1535.2
2018-Jan-20 19:01N 31°28' E 121°25'5763.3
2018-Jan-20 19:00N 31°32' E 121°21'10141.5
2018-Jan-20 18:56N 31°40' E 121°13'13661.5
2018-Jan-20 18:55N 31°30' E 121°24'2 4.3
2018-Jan-20 18:30N 31°28' E 121°25'76612.3
2018-Jan-20 18:30N 31°34' E 121°19'8218.7
2018-Jan-20 18:28N 31°40' E 121°13'13603.6
2018-Jan-20 18:27N 31°30' E 121°24'1329.7
2018-Jan-20 18:00N 31°40' E 121°13'51751.6
2018-Jan-20 17:59N 31°35' E 121°17'10811.1
2018-Jan-20 17:59N 31°28' E 121°25'221.1
2018-Jan-20 17:54N 31°30' E 121°24'1 3.6
2018-Jan-20 17:35N 31°29' E 121°23'218.2
2018-Jan-20 17:29N 31°28' E 121°25'15440.5
2018-Jan-20 17:27N 31°40' E 121°13'2107.3
2018-Jan-20 17:25N 31°38' E 121°15'11993.5
2018-Jan-20 17:25N 31°30' E 121°24'2 4.3
2018-Jan-20 17:00N 31°28' E 121°25'274.9
2018-Jan-20 16:59N 31°30' E 121°24'13261.0
2018-Jan-20 16:56N 31°40' E 121°13'1237.1
2018-Jan-20 16:36N 31°30' E 121°23'0 0.1
2018-Jan-20 16:30N 31°30' E 121°23'31143.5
2018-Jan-20 16:30N 31°28' E 121°25'16196.5
2018-Jan-20 16:25N 31°40' E 121°12'14582.1
2018-Jan-20 16:24N 31°30' E 121°24'2 4.3
2018-Jan-20 16:00N 31°28' E 121°25'256.8
2018-Jan-20 15:58N 31°30' E 121°24'2 3.3
2018-Jan-20 15:28N 31°28' E 121°25'22005.1
2018-Jan-20 15:28N 31°30' E 121°24'2 3.7
2018-Jan-20 15:01N 31°28' E 121°25'221.1
2018-Jan-20 14:56N 31°30' E 121°24'2 3.8
2018-Jan-20 14:29N 31°28' E 121°25'215.9
2018-Jan-20 14:23N 31°30' E 121°24'0 0.0
2018-Jan-20 14:00N 31°30' E 121°24'2299.7
2018-Jan-20 14:00N 31°28' E 121°25'0 0.0
2018-Jan-20 13:30N 31°28' E 121°25'233.8
2018-Jan-20 13:27N 31°30' E 121°24'110.5
2018-Jan-20 13:20N 31°29' E 121°23'120.7
2018-Jan-20 13:17N 31°30' E 121°23'310.0
2018-Jan-20 13:00N 31°28' E 121°25'3115.9
2018-Jan-20 12:59N 31°30' E 121°23'1 6.9
2018-Jan-20 12:50N 31°29' E 121°23'116.3
2018-Jan-20 12:46N 31°30' E 121°24'0 0.0
2018-Jan-20 12:30N 31°30' E 121°24'26015.3
2018-Jan-20 12:30N 31°28' E 121°25'0 0.0
2018-Jan-20 12:00N 31°28' E 121°25'2201.2
2018-Jan-20 12:00N 31°30' E 121°24'198.7
2018-Jan-20 11:59N 31°29' E 121°23'2 3.9
2018-Jan-20 11:30N 31°28' E 121°25'260.7
2018-Jan-20 11:28N 31°29' E 121°23'112.7
2018-Jan-20 11:23N 31°30' E 121°24'2 4.3
2018-Jan-20 10:59N 31°28' E 121°25'275.5
2018-Jan-20 10:58N 31°30' E 121°24'147.2
2018-Jan-20 10:56N 31°29' E 121°23'2 4.3
2018-Jan-20 10:30N 31°28' E 121°25'241.5
2018-Jan-20 10:28N 31°30' E 121°24'2 3.7
2018-Jan-20 10:00N 31°28' E 121°25'228.9
2018-Jan-20 09:57N 31°30' E 121°24'2 4.7
2018-Jan-20 09:37N 31°30' E 121°23'324.1
2018-Jan-20 09:30N 31°28' E 121°25'223.0
2018-Jan-20 09:26N 31°30' E 121°24'2 3.8
2018-Jan-20 09:01N 31°30' E 121°23'3183.5
2018-Jan-20 09:00N 31°28' E 121°25'224.0
2018-Jan-20 08:56N 31°30' E 121°24'2 3.7
2018-Jan-20 08:27N 31°28' E 121°25'215.0
2018-Jan-20 08:20N 31°30' E 121°24'2 5.4
2018-Jan-20 08:00N 31°28' E 121°25'234.4
2018-Jan-20 07:57N 31°30' E 121°24'164.2
2018-Jan-20 07:56N 31°29' E 121°23'1 2.6
2018-Jan-20 07:30N 31°30' E 121°24'2103.6
2018-Jan-20 07:29N 31°28' E 121°25'219.4
2018-Jan-20 07:23N 31°29' E 121°23'2 4.8
2018-Jan-20 07:00N 31°28' E 121°25'228.5
2018-Jan-20 06:56N 31°29' E 121°23'129.6
2018-Jan-20 06:54N 31°30' E 121°24'4882333.1
2018-Jan-20 06:41N 23°33' E 119°29'4862449.4
2018-Jan-20 06:29N 31°28' E 121°25'2 5.2
2018-Jan-20 06:09N 31°30' E 121°24'212.4
2018-Jan-20 06:00N 31°28' E 121°25'46240555.6
2018-Jan-20 06:00N 24°24' E 117°58'4634107.5
2018-Jan-20 05:53N 31°30' E 121°24'1250.6
2018-Jan-20 05:39N 31°39' E 121°15'1391.0
2018-Jan-20 05:30N 31°28' E 121°25'122762.6
2018-Jan-20 05:30N 31°38' E 121°16'11309.3
2018-Jan-20 05:28N 31°30' E 121°24'1111.3
2018-Jan-20 05:27N 31°30' E 121°23'1 6.9
2018-Jan-20 05:17N 31°29' E 121°23'4626395.2
2018-Jan-20 05:13N 24°18' E 118°17'4612171.1
2018-Jan-20 05:00N 31°28' E 121°25'461110549.1
2018-Jan-20 05:00N 24°18' E 118°18'46598460.6
2018-Jan-20 05:00N 31°35' E 121°19'6742.5
2018-Jan-20 04:59N 31°30' E 121°23'143.8
2018-Jan-20 04:57N 31°30' E 121°24'157.5
2018-Jan-20 04:56N 31°29' E 121°23'3 7.6
2018-Jan-20 04:30N 31°32' E 121°22'46233958.2
2018-Jan-20 04:29N 24°18' E 118°22'459165321.5
2018-Jan-20 04:29N 31°28' E 121°25'33446.6
2018-Jan-20 04:29N 31°30' E 121°23'111.9
2018-Jan-20 04:22N 31°30' E 121°24'4611292.9
2018-Jan-20 04:00N 24°18' E 118°20'4609800.9
2018-Jan-20 03:58N 31°28' E 121°25'222.6
2018-Jan-20 03:53N 31°30' E 121°24'2 4.6
2018-Jan-20 03:30N 31°28' E 121°25'46010552.7
2018-Jan-20 03:28N 24°18' E 118°19'4622377.3
2018-Jan-20 03:16N 31°30' E 121°24'2 6.2
2018-Jan-20 03:00N 31°28' E 121°25'46048706.7
2018-Jan-20 02:59N 24°18' E 118°20'4614024.0
2018-Jan-20 02:52N 31°29' E 121°23'110.9
2018-Jan-20 02:46N 31°30' E 121°24'2 6.5
2018-Jan-20 02:31N 31°28' E 121°25'45935959.1
2018-Jan-20 02:30N 24°18' E 118°22'46012944.6
2018-Jan-20 02:28N 31°29' E 121°25'255.3
2018-Jan-20 02:25N 31°30' E 121°23'118.7
2018-Jan-20 02:21N 31°30' E 121°24'4611346.8
2018-Jan-20 02:00N 24°18' E 118°22'45915449.2
2018-Jan-20 01:58N 31°28' E 121°25'236.2
2018-Jan-20 01:56N 31°30' E 121°24'4611086.1
2018-Jan-20 01:30N 24°18' E 118°22'459236224.7
2018-Jan-20 01:30N 31°28' E 121°25'210.2
2018-Jan-20 01:20N 31°30' E 121°24'2 5.0
2018-Jan-20 01:00N 31°28' E 121°25'460127366.4
2018-Jan-20 01:00N 24°18' E 118°20'4611928.5
2018-Jan-20 00:46N 31°30' E 121°23'113.9
2018-Jan-20 00:39N 31°30' E 121°24'211.2
2018-Jan-20 00:30N 31°28' E 121°25'288.8
2018-Jan-20 00:29N 31°30' E 121°24'46215690.5
2018-Jan-20 00:28N 24°18' E 118°18'4624548.9
2018-Jan-20 00:21N 31°32' E 121°21'513.6
2018-Jan-20 00:00N 31°28' E 121°25'46024729.3
2018-Jan-19 23:59N 24°18' E 118°20'46227695.8
2018-Jan-19 23:58N 31°30' E 121°24'1 4.8
2018-Jan-19 23:40N 31°30' E 121°23'4623030.1
2018-Jan-19 23:30N 24°18' E 118°18'4611658806.7
2018-Jan-19 23:30N 31°28' E 121°25'1191.1
2018-Jan-19 23:23N 31°36' E 121°16'985.9
2018-Jan-19 23:17N 31°30' E 121°24'2 5.8
2018-Jan-19 23:00N 31°28' E 121°25'46166314.2
2018-Jan-19 22:59N 24°18' E 118°20'46210797.0
2018-Jan-19 22:57N 31°30' E 121°24'4611042.2
2018-Jan-19 22:30N 24°18' E 118°21'4601459.3
2018-Jan-19 22:11N 31°28' E 121°25'4612487.0
2018-Jan-19 22:00N 24°18' E 118°18'4619479.3
2018-Jan-19 21:57N 31°28' E 121°25'239.1
2018-Jan-19 21:55N 31°30' E 121°24'4621128.8
2018-Jan-19 21:30N 24°18' E 118°20'46075302.9
2018-Jan-19 21:30N 31°28' E 121°25'226.4
2018-Jan-19 21:26N 31°30' E 121°24'2 3.9
2018-Jan-19 21:00N 31°28' E 121°25'46082752.9
2018-Jan-19 21:00N 24°18' E 118°22'4614882.9
2018-Jan-19 20:54N 31°30' E 121°24'1955.0
2018-Jan-19 20:33N 31°43' E 121°08'19332.2
2018-Jan-19 20:30N 31°30' E 121°24'2253.3
2018-Jan-19 20:29N 31°28' E 121°25'46031874.1
2018-Jan-19 20:29N 24°18' E 118°20'4622077.7
2018-Jan-19 20:15N 31°30' E 121°23'15756.2
2018-Jan-19 20:14N 31°41' E 121°10'1875.5
2018-Jan-19 20:00N 31°28' E 121°25'16855.6
2018-Jan-19 19:59N 31°40' E 121°13'468210701.7
2018-Jan-19 19:59N 24°18' E 118°18'4623519.1
2018-Jan-19 19:51N 31°30' E 121°24'1218.8
2018-Jan-19 19:50N 31°30' E 121°23'4631401.8
2018-Jan-19 19:30N 24°18' E 118°16'46773092.2
2018-Jan-19 19:30N 31°37' E 121°16'932.6
2018-Jan-19 19:14N 31°30' E 121°23'334.0
2018-Jan-19 19:09N 31°28' E 121°25'4623191.5
2018-Jan-19 19:00N 24°19' E 118°12'46515505.6
2018-Jan-19 18:59N 31°34' E 121°20'7476.9
2018-Jan-19 18:58N 31°28' E 121°25'17491.5
2018-Jan-19 18:56N 31°41' E 121°11'1474.7
2018-Jan-19 18:44N 31°30' E 121°23'1148.1
2018-Jan-19 18:30N 31°39' E 121°14'46973486.0
2018-Jan-19 18:30N 24°19' E 118°09'463208394.4
2018-Jan-19 18:30N 31°28' E 121°25'3227.7
2018-Jan-19 18:29N 31°30' E 121°23'493.6
2018-Jan-19 18:27N 31°28' E 121°27'4801.8
2018-Jan-19 18:26N 31°30' E 121°23'1 8.4
2018-Jan-19 18:16N 31°30' E 121°24'10140.8
2018-Jan-19 18:11N 31°37' E 121°16'1265.1
2018-Jan-19 18:00N 31°28' E 121°25'10709.1
2018-Jan-19 18:00N 31°36' E 121°17'9621.1
2018-Jan-19 17:59N 31°30' E 121°24'1101.7
2018-Jan-19 17:58N 31°29' E 121°25'101250.8
2018-Jan-19 17:57N 31°36' E 121°17'761.0
2018-Jan-19 17:50N 31°30' E 121°23'310.2
2018-Jan-19 17:32N 31°28' E 121°25'269.4
2018-Jan-19 17:30N 31°29' E 121°24'11778.5
2018-Jan-19 17:30N 31°28' E 121°25'6343.4
2018-Jan-19 17:29N 31°33' E 121°20'5269.0
2018-Jan-19 17:28N 31°30' E 121°24'53662.8
2018-Jan-19 17:28N 31°33' E 121°20'7400.3
2018-Jan-19 17:27N 31°28' E 121°25'3192.1
2018-Jan-19 17:26N 31°30' E 121°23'3 6.7
2018-Jan-19 17:00N 31°28' E 121°25'3615.3
2018-Jan-19 17:00N 31°30' E 121°23'043.0
2018-Jan-19 17:00N 31°30' E 121°22'014.1
2018-Jan-19 16:59N 31°30' E 121°23'129.6
2018-Jan-19 16:56N 31°30' E 121°24'2 4.0
2018-Jan-19 16:29N 31°28' E 121°25'5885.9
2018-Jan-19 16:29N 31°32' E 121°21'3107.4
2018-Jan-19 16:27N 31°30' E 121°24'247.1
2018-Jan-19 16:25N 31°28' E 121°25'3 9.2
2018-Jan-19 16:05N 31°30' E 121°23'455.4
2018-Jan-19 16:00N 31°33' E 121°19'51133.2
2018-Jan-19 16:00N 31°30' E 121°24'160.8
2018-Jan-19 15:59N 31°30' E 121°23'3220.4
2018-Jan-19 15:58N 31°28' E 121°25'0 5.9
2018-Jan-19 15:54N 31°28' E 121°25'1025.3
2018-Jan-19 15:30N 31°35' E 121°17'8741.7
2018-Jan-19 15:30N 31°30' E 121°24'2150.9
2018-Jan-19 15:29N 31°28' E 121°25'3246.9
2018-Jan-19 15:28N 31°30' E 121°23'1020.8
2018-Jan-19 14:59N 31°38' E 121°15'131461.3
2018-Jan-19 14:58N 31°28' E 121°25'267.1
2018-Jan-19 14:57N 31°30' E 121°24'236.6
2018-Jan-19 14:54N 31°28' E 121°25'0 0.9
2018-Jan-19 14:30N 31°28' E 121°25'237.4
2018-Jan-19 14:28N 31°30' E 121°24'123118.6
2018-Jan-19 14:28N 31°38' E 121°14'1442.8
2018-Jan-19 14:08N 31°28' E 121°25'0 0.0
2018-Jan-19 14:00N 31°28' E 121°25'14993.0
2018-Jan-19 13:59N 31°38' E 121°14'14413.8
2018-Jan-19 13:57N 31°28' E 121°25'226.8
2018-Jan-19 13:53N 31°30' E 121°24'2 4.4
2018-Jan-19 13:30N 31°28' E 121°25'14615.7
2018-Jan-19 13:29N 31°39' E 121°13'155250.3
2018-Jan-19 13:29N 31°28' E 121°25'0 1.5
2018-Jan-19 13:26N 31°28' E 121°25'2150.3
2018-Jan-19 13:25N 31°30' E 121°24'1 6.1
2018-Jan-19 13:10N 31°30' E 121°23'1376.7
2018-Jan-19 13:01N 31°40' E 121°13'152317.9
2018-Jan-19 13:00N 31°28' E 121°25'068.2
2018-Jan-19 13:00N 31°28' E 121°25'0 7.3
2018-Jan-19 12:59N 31°28' E 121°25'326.5
2018-Jan-19 12:52N 31°30' E 121°23'3 7.2
2018-Jan-19 12:29N 31°28' E 121°25'092.3
2018-Jan-19 12:29N 31°28' E 121°25'3277.0
2018-Jan-19 12:28N 31°30' E 121°23'133508.5
2018-Jan-19 12:28N 31°40' E 121°13'1431.8
2018-Jan-19 12:02N 31°30' E 121°24'239.8
2018-Jan-19 11:59N 31°28' E 121°25'046.2
2018-Jan-19 11:59N 31°28' E 121°25'16201.3
2018-Jan-19 11:54N 31°40' E 121°13'1538.3
2018-Jan-19 11:30N 31°28' E 121°25'2 9.7
2018-Jan-19 11:20N 31°30' E 121°24'215.5
2018-Jan-19 11:13N 31°28' E 121°25'16104.0
2018-Jan-19 11:04N 31°40' E 121°13'15264.8
2018-Jan-19 11:00N 31°28' E 121°25'058.8
2018-Jan-19 11:00N 31°28' E 121°25'161174.3
2018-Jan-19 10:59N 31°40' E 121°13'14107.4
2018-Jan-19 10:51N 31°30' E 121°24'117.4
2018-Jan-19 10:46N 31°30' E 121°23'310.6
2018-Jan-19 10:30N 31°28' E 121°25'15829.8
2018-Jan-19 10:29N 31°40' E 121°13'14337.4
2018-Jan-19 10:27N 31°30' E 121°24'297.2
2018-Jan-19 10:26N 31°28' E 121°25'0 0.8
2018-Jan-19 10:00N 31°28' E 121°25'152317.9
2018-Jan-19 10:00N 31°40' E 121°13'14367.0
2018-Jan-19 09:57N 31°30' E 121°24'2 9.1
2018-Jan-19 09:46N 31°28' E 121°25'0 1.0
2018-Jan-19 09:25N 31°28' E 121°25'1557.7
2018-Jan-19 09:09N 31°40' E 121°13'14398.9
2018-Jan-19 09:07N 31°30' E 121°24'214.5
2018-Jan-19 09:00N 31°28' E 121°25'289.4
2018-Jan-19 08:59N 31°30' E 121°24'14881.5
2018-Jan-19 08:58N 31°40' E 121°13'1532.8
2018-Jan-19 08:29N 31°28' E 121°25'15292.9
2018-Jan-19 08:26N 31°40' E 121°13'13171.9
2018-Jan-19 08:22N 31°30' E 121°23'3 7.1
2018-Jan-19 07:58N 31°28' E 121°25'151392.0
2018-Jan-19 07:57N 31°40' E 121°13'1685.0
2018-Jan-19 07:46N 31°28' E 121°25'329.6
2018-Jan-19 07:40N 31°30' E 121°23'366.7
2018-Jan-19 07:37N 31°28' E 121°25'320.7
2018-Jan-19 07:28N 31°30' E 121°23'131163.0
2018-Jan-19 07:27N 31°40' E 121°13'15130.1
2018-Jan-19 07:20N 31°28' E 121°25'211.5
2018-Jan-19 07:11N 31°30' E 121°24'210.1
2018-Jan-19 07:00N 31°28' E 121°25'15562.6
2018-Jan-19 06:59N 31°40' E 121°13'13796.1
2018-Jan-19 06:58N 31°30' E 121°23'117.3
2018-Jan-19 06:53N 31°30' E 121°24'2 4.3
2018-Jan-19 06:28N 31°28' E 121°25'3736.2
2018-Jan-19 06:28N 31°30' E 121°23'366.1
2018-Jan-19 06:25N 31°28' E 121°25'240.4
2018-Jan-19 06:22N 31°30' E 121°24'1457.5
2018-Jan-19 06:08N 31°40' E 121°13'15112.5
2018-Jan-19 05:59N 31°28' E 121°25'15127.1
2018-Jan-19 05:52N 31°40' E 121°13'131814.3
2018-Jan-19 05:52N 31°30' E 121°23'110.1
2018-Jan-19 05:43N 31°30' E 121°24'2 8.5
2018-Jan-19 05:30N 31°28' E 121°25'151855.9
2018-Jan-19 05:30N 31°40' E 121°13'14250.9
2018-Jan-19 05:27N 31°30' E 121°24'239.5
2018-Jan-19 05:24N 31°28' E 121°25'323.2
2018-Jan-19 05:16N 31°30' E 121°23'311.1
2018-Jan-19 05:00N 31°28' E 121°25'295.5
2018-Jan-19 04:59N 31°30' E 121°24'111.7
2018-Jan-19 04:51N 31°30' E 121°23'4489.9
2018-Jan-19 04:51N 31°34' E 121°20'9181.1
2018-Jan-19 04:48N 31°40' E 121°13'1342.8
2018-Jan-19 04:30N 31°30' E 121°23'3516.2
2018-Jan-19 04:30N 31°28' E 121°25'121428.8
2018-Jan-19 04:30N 31°37' E 121°16'10639.4
2018-Jan-19 04:29N 31°30' E 121°24'2217.8
2018-Jan-19 04:28N 31°32' E 121°22'4131.0
2018-Jan-19 04:26N 31°34' E 121°19'863.9
2018-Jan-19 04:19N 31°40' E 121°13'4705258.7
2018-Jan-19 04:14N 24°19' E 118°07'4631999.0
2018-Jan-19 04:00N 31°28' E 121°25'8517.0
2018-Jan-19 03:59N 31°35' E 121°19'467240365.5
2018-Jan-19 03:59N 24°19' E 118°08'466335320.4
2018-Jan-19 03:59N 31°32' E 121°22'277.4
2018-Jan-19 03:57N 31°30' E 121°23'1350.9
2018-Jan-19 03:57N 31°30' E 121°24'14161.4
2018-Jan-19 03:52N 31°40' E 121°13'1658.7
2018-Jan-19 03:36N 31°28' E 121°25'0 3.5
2018-Jan-19 03:30N 31°28' E 121°25'53857.9
2018-Jan-19 03:30N 31°33' E 121°21'101457.9
2018-Jan-19 03:29N 31°40' E 121°13'13259.0
2018-Jan-19 03:26N 31°30' E 121°23'163.3
2018-Jan-19 03:25N 31°30' E 121°24'226.6
2018-Jan-19 03:21N 31°28' E 121°25'0 0.4
2018-Jan-19 03:11N 31°28' E 121°25'1693.6
2018-Jan-19 03:01N 31°40' E 121°13'1513903.0
2018-Jan-19 03:00N 31°28' E 121°25'2125.3
2018-Jan-19 03:00N 31°30' E 121°24'12116.7
2018-Jan-19 03:00N 31°31' E 121°24'323.9
2018-Jan-19 02:52N 31°28' E 121°25'394.1
2018-Jan-19 02:50N 31°30' E 121°23'3 8.2
2018-Jan-19 02:30N 31°28' E 121°25'2300.8
2018-Jan-19 02:30N 31°30' E 121°24'14285.7
2018-Jan-19 02:27N 31°40' E 121°13'1360.8
2018-Jan-19 02:14N 31°30' E 121°23'312.0
2018-Jan-19 02:00N 31°28' E 121°25'256.0
2018-Jan-19 01:59N 31°30' E 121°24'14540.6
2018-Jan-19 01:57N 31°40' E 121°13'13991.5
2018-Jan-19 01:56N 31°30' E 121°23'372.2
2018-Jan-19 01:54N 31°28' E 121°25'0 0.9
2018-Jan-19 01:30N 31°28' E 121°25'249.0
2018-Jan-19 01:28N 31°30' E 121°24'1410061.5
2018-Jan-19 01:28N 31°40' E 121°13'15113.1
2018-Jan-19 01:20N 31°30' E 121°25'1160.4
2018-Jan-19 01:20N 31°30' E 121°24'1 8.7
2018-Jan-19 01:11N 31°30' E 121°23'316.0
2018-Jan-19 01:00N 31°28' E 121°25'236.9
2018-Jan-19 00:58N 31°30' E 121°24'14312.6
2018-Jan-19 00:55N 31°40' E 121°13'111104.4
2018-Jan-19 00:55N 31°32' E 121°21'580.0
2018-Jan-19 00:51N 31°28' E 121°25'215.2
2018-Jan-19 00:44N 31°30' E 121°24'226.7
2018-Jan-19 00:41N 31°30' E 121°23'314.5
2018-Jan-19 00:29N 31°28' E 121°25'151917.7
2018-Jan-19 00:29N 31°40' E 121°13'13974.4
2018-Jan-19 00:28N 31°30' E 121°24'111.9
2018-Jan-19 00:24N 31°30' E 121°24'2 4.1
2018-Jan-19 00:00N 31°28' E 121°25'15505.6
2018-Jan-18 23:58N 31°40' E 121°13'14189.7
2018-Jan-18 23:54N 31°30' E 121°24'1 4.9
2018-Jan-18 23:38N 31°31' E 121°23'0 5.1
2018-Jan-18 23:35N 31°30' E 121°23'0 3.6
2018-Jan-18 23:30N 31°31' E 121°23'3266.0
2018-Jan-18 23:29N 31°28' E 121°25'15216.4
2018-Jan-18 23:25N 31°40' E 121°13'16140.6
2018-Jan-18 23:18N 31°28' E 121°25'3114.2
2018-Jan-18 23:17N 31°30' E 121°23'310.1
2018-Jan-18 23:00N 31°28' E 121°25'46087206.4
2018-Jan-18 23:00N 24°18' E 118°20'46833683.5
2018-Jan-18 22:59N 31°40' E 121°13'152864.6
2018-Jan-18 22:59N 31°29' E 121°25'21487.9
2018-Jan-18 22:59N 31°30' E 121°23'185.6
2018-Jan-18 22:58N 31°30' E 121°24'114.2
2018-Jan-18 22:52N 31°31' E 121°23'17651.7
2018-Jan-18 22:50N 31°15' E 121°29'1441.9
2018-Jan-18 22:30N 31°28' E 121°25'156177.3
2018-Jan-18 22:30N 31°40' E 121°13'46735024.1
2018-Jan-18 22:29N 24°18' E 118°22'46114175.7
2018-Jan-18 22:27N 31°30' E 121°24'1161.2
2018-Jan-18 22:27N 31°31' E 121°23'0 4.2
2018-Jan-18 22:23N 31°30' E 121°23'0 0.8
2018-Jan-18 22:00N 31°31' E 121°23'13402.0
2018-Jan-18 21:58N 31°40' E 121°13'152058.5
2018-Jan-18 21:58N 31°28' E 121°25'360.1
2018-Jan-18 21:55N 31°30' E 121°23'2 9.9
2018-Jan-18 21:46N 31°30' E 121°24'4621771.5
2018-Jan-18 21:30N 24°18' E 118°18'468842860.6
2018-Jan-18 21:30N 31°40' E 121°13'15712.8
2018-Jan-18 21:29N 31°28' E 121°25'132.6
2018-Jan-18 21:27N 31°29' E 121°25'1 5.6
2018-Jan-18 21:18N 31°30' E 121°24'1134.2
2018-Jan-18 21:18N 31°31' E 121°23'4621528.9
2018-Jan-18 21:00N 24°18' E 118°20'46812852.3
2018-Jan-18 20:57N 31°40' E 121°13'152926.9
2018-Jan-18 20:57N 31°28' E 121°25'3179.9
2018-Jan-18 20:56N 31°31' E 121°23'2186.6
2018-Jan-18 20:56N 31°29' E 121°25'118.3
2018-Jan-18 20:53N 31°30' E 121°24'1 9.7
2018-Jan-18 20:48N 31°30' E 121°25'2 5.3
2018-Jan-18 20:30N 31°28' E 121°25'46068925.0
2018-Jan-18 20:30N 24°18' E 118°22'461127666.9
2018-Jan-18 20:30N 31°31' E 121°23'1133.3
2018-Jan-18 20:30N 31°31' E 121°23'1124.4
2018-Jan-18 20:29N 31°30' E 121°23'13713.6
2018-Jan-18 20:28N 31°40' E 121°12'15377.1
2018-Jan-18 20:26N 31°30' E 121°24'2 4.2
2018-Jan-18 20:03N 31°30' E 121°23'4618055.0
2018-Jan-18 20:00N 24°18' E 118°21'461237152.5
2018-Jan-18 20:00N 31°31' E 121°23'288.4
2018-Jan-18 19:59N 31°32' E 121°21'4713.6
2018-Jan-18 19:58N 31°28' E 121°25'3169.0
2018-Jan-18 19:57N 31°30' E 121°23'299.1
2018-Jan-18 19:56N 31°31' E 121°21'318.7
2018-Jan-18 19:46N 31°30' E 121°24'483.8
2018-Jan-18 19:43N 31°32' E 121°19'2 8.7
2018-Jan-18 19:31N 31°32' E 121°21'45311.6
2018-Jan-18 19:30N 31°28' E 121°25'6445.7
2018-Jan-18 19:30N 31°32' E 121°20'46341634.6
2018-Jan-18 19:29N 24°18' E 118°19'4626543.0
2018-Jan-18 19:25N 31°30' E 121°24'4500.0
2018-Jan-18 19:24N 31°32' E 121°19'4621166.6
2018-Jan-18 19:00N 24°18' E 118°17'46314372.7
2018-Jan-18 18:59N 31°32' E 121°21'43991.8
2018-Jan-18 18:58N 31°28' E 121°25'211.2
2018-Jan-18 18:49N 31°30' E 121°24'124.1
2018-Jan-18 18:45N 31°30' E 121°23'0 3.7
2018-Jan-18 18:41N 31°31' E 121°23'4642618.5
2018-Jan-18 18:30N 24°18' E 118°13'4657466.1
2018-Jan-18 18:27N 31°32' E 121°21'2113.8
2018-Jan-18 18:26N 31°31' E 121°23'170.5
2018-Jan-18 18:25N 31°30' E 121°24'1102.8
2018-Jan-18 18:24N 31°30' E 121°23'35169.9
2018-Jan-18 18:24N 31°28' E 121°25'0 0.0
2018-Jan-18 18:00N 31°28' E 121°25'463277934.1
2018-Jan-18 18:00N 24°19' E 118°08'4658814.5
2018-Jan-18 17:57N 31°32' E 121°21'2646.1
2018-Jan-18 17:57N 31°31' E 121°23'0 4.8
2018-Jan-18 17:54N 31°30' E 121°23'129.5
2018-Jan-18 17:51N 31°30' E 121°24'0 0.0
2018-Jan-18 17:30N 31°30' E 121°24'2198.9
2018-Jan-18 17:29N 31°28' E 121°25'4890.7
2018-Jan-18 17:29N 31°32' E 121°21'218.9
2018-Jan-18 17:24N 31°30' E 121°23'0 4.9
2018-Jan-18 17:21N 31°31' E 121°23'3 8.5
2018-Jan-18 17:00N 31°28' E 121°25'250.2
2018-Jan-18 16:58N 31°30' E 121°24'386.4
2018-Jan-18 16:56N 31°32' E 121°21'211.0
2018-Jan-18 16:48N 31°30' E 121°23'0304.4
2018-Jan-18 16:48N 31°31' E 121°23'2 5.0
2018-Jan-18 16:28N 31°32' E 121°21'4521.4
2018-Jan-18 16:27N 31°28' E 121°25'6136.5
2018-Jan-18 16:25N 31°32' E 121°20'3183.6
2018-Jan-18 16:24N 31°30' E 121°23'0 8.9
2018-Jan-18 16:22N 31°31' E 121°23'174.9
2018-Jan-18 16:21N 31°30' E 121°24'465.4
2018-Jan-18 16:17N 31°32' E 121°20'519.2
2018-Jan-18 16:00N 31°28' E 121°25'3248.1
2018-Jan-18 16:00N 31°30' E 121°23'4672.4
2018-Jan-18 15:59N 31°33' E 121°19'5527.4
2018-Jan-18 15:59N 31°30' E 121°24'53013.0
2018-Jan-18 15:59N 31°33' E 121°19'4102.4
2018-Jan-18 15:57N 31°30' E 121°22'134.9
2018-Jan-18 15:54N 31°32' E 121°22'410.3
2018-Jan-18 15:30N 31°34' E 121°18'33103.9
2018-Jan-18 15:30N 31°32' E 121°20'6575.2
2018-Jan-18 15:30N 31°28' E 121°25'21493.4
2018-Jan-18 15:30N 31°30' E 121°24'2126.3
2018-Jan-18 15:29N 31°31' E 121°22'81958.9
2018-Jan-18 15:28N 31°37' E 121°16'0 0.6
2018-Jan-18 15:00N 31°36' E 121°16'112151.3
2018-Jan-18 15:00N 31°28' E 121°25'1614003.1
2018-Jan-18 15:00N 31°40' E 121°12'8539.5
2018-Jan-18 14:59N 31°34' E 121°18'2153.2
2018-Jan-18 14:59N 31°33' E 121°20'5127.2
2018-Jan-18 14:56N 31°30' E 121°24'216.2
2018-Jan-18 14:50N 31°29' E 121°26'1 2.5
2018-Jan-18 14:30N 31°28' E 121°25'11814.5
2018-Jan-18 14:29N 31°36' E 121°16'195.7
2018-Jan-18 14:28N 31°36' E 121°17'213.1
2018-Jan-18 14:19N 31°34' E 121°19'63259.3
2018-Jan-18 14:19N 31°30' E 121°24'341.3
2018-Jan-18 14:14N 31°31' E 121°21'2 8.4
2018-Jan-18 14:00N 31°33' E 121°20'6351.7
2018-Jan-18 13:59N 31°28' E 121°25'2738.8
2018-Jan-18 13:59N 31°30' E 121°24'13706.4
2018-Jan-18 13:58N 31°39' E 121°14'3 7.2
2018-Jan-18 13:30N 31°36' E 121°16'9158.8
2018-Jan-18 13:26N 31°30' E 121°24'2 3.8
2018-Jan-18 13:00N 31°28' E 121°25'219.3
2018-Jan-18 12:55N 31°30' E 121°24'1 8.5
2018-Jan-18 12:51N 31°29' E 121°24'13430.8
2018-Jan-18 12:49N 31°39' E 121°13'1544.7
2018-Jan-18 12:29N 31°28' E 121°25'2285.4
2018-Jan-18 12:29N 31°30' E 121°24'1362.6
2018-Jan-18 12:16N 31°39' E 121°13'1335.6
2018-Jan-18 11:54N 31°30' E 121°24'2348.9
2018-Jan-18 11:54N 31°28' E 121°25'0 0.0
2018-Jan-18 11:30N 31°28' E 121°25'2 8.6
2018-Jan-18 11:19N 31°30' E 121°24'2 5.4
2018-Jan-18 11:00N 31°28' E 121°25'216.7
2018-Jan-18 10:54N 31°30' E 121°24'2 4.1
2018-Jan-18 10:30N 31°28' E 121°25'2 6.2
2018-Jan-18 10:14N 31°30' E 121°24'2 6.8
2018-Jan-18 09:59N 31°28' E 121°25'217.7
2018-Jan-18 09:54N 31°30' E 121°24'0 0.0
2018-Jan-18 09:30N 31°30' E 121°24'254.1
2018-Jan-18 09:29N 31°28' E 121°25'0 0.0
2018-Jan-18 09:00N 31°28' E 121°25'2 6.4
2018-Jan-18 08:44N 31°30' E 121°24'2 7.0
2018-Jan-18 08:30N 31°28' E 121°25'211.7
2018-Jan-18 08:22N 31°30' E 121°24'2 4.2
2018-Jan-18 07:58N 31°28' E 121°25'217.0
2018-Jan-18 07:52N 31°30' E 121°24'14219.1
2018-Jan-18 07:48N 31°40' E 121°13'1545.2
2018-Jan-18 07:28N 31°28' E 121°25'217.8
2018-Jan-18 07:22N 31°30' E 121°24'14134.9
2018-Jan-18 07:16N 31°40' E 121°13'1556.6
2018-Jan-18 06:59N 31°28' E 121°25'232.3
2018-Jan-18 06:56N 31°30' E 121°24'2 4.1
2018-Jan-18 06:30N 31°28' E 121°25'211.0
2018-Jan-18 06:21N 31°30' E 121°24'2 5.2
2018-Jan-18 06:00N 31°28' E 121°25'0 0.0
2018-Jan-18 05:30N 31°28' E 121°25'15118.7
2018-Jan-18 05:22N 31°40' E 121°13'1540.3
2018-Jan-18 04:59N 31°28' E 121°25'0 0.0
2018-Jan-18 04:30N 31°28' E 121°25'2 3.0
2018-Jan-18 03:56N 31°30' E 121°24'226.0
2018-Jan-18 03:52N 31°28' E 121°25'932.9
2018-Jan-18 03:37N 31°35' E 121°18'977.0
2018-Jan-18 03:30N 31°28' E 121°25'81402.3
2018-Jan-18 03:30N 31°34' E 121°19'679.8
2018-Jan-18 03:25N 31°30' E 121°24'57285.1
2018-Jan-18 03:13N 31°60' E 120°27'54260.1
2018-Jan-18 03:00N 31°32' E 121°22'545001.0
2018-Jan-18 03:00N 31°59' E 120°27'5829840.2
2018-Jan-18 03:00N 31°28' E 121°25'2464.8
2018-Jan-18 02:59N 31°30' E 121°24'58112.5
2018-Jan-18 02:29N 31°58' E 120°25'59979.1
2018-Jan-18 02:25N 31°28' E 121°25'0 0.0
2018-Jan-18 01:58N 31°28' E 121°25'2105.5
2018-Jan-18 01:57N 31°30' E 121°24'2 3.5
2018-Jan-18 01:30N 31°28' E 121°25'213.9
2018-Jan-18 01:23N 31°30' E 121°24'2 4.2
2018-Jan-18 01:00N 31°28' E 121°25'237.1
2018-Jan-18 00:57N 31°30' E 121°24'8693199.3
2018-Jan-18 00:41N 20°15' E 111°16'8681263.4
2018-Jan-17 23:59N 31°28' E 121°25'0 0.0
2018-Jan-17 23:57N 31°28' E 121°25'2 3.3
2018-Jan-17 23:27N 31°30' E 121°24'  
2018-Jan-12 14:59N 31°29' E 121°24'1135.3
2018-Jan-12 14:59N 31°28' E 121°25'2758.9
2018-Jan-12 14:59N 31°30' E 121°23'131069.6
2018-Jan-12 14:58N 31°40' E 121°13'15994.8
2018-Jan-12 14:57N 31°28' E 121°25'17326.2
2018-Jan-12 14:54N 31°41' E 121°12'1465.3
2018-Jan-12 14:41N 31°30' E 121°22'0 2.7
2018-Jan-12 14:30N 31°30' E 121°22'1401.2
2018-Jan-12 14:30N 31°31' E 121°21'121531.4
2018-Jan-12 14:29N 31°41' E 121°12'171069.6
2018-Jan-12 14:29N 31°28' E 121°25'028.8
2018-Jan-12 14:28N 31°28' E 121°25'15214.3
2018-Jan-12 14:23N 31°40' E 121°13'1360.8
2018-Jan-12 14:11N 31°30' E 121°22'422.5
2018-Jan-12 14:00N 31°33' E 121°19'10748.2
2018-Jan-12 14:00N 31°41' E 121°12'171152.2
2018-Jan-12 13:59N 31°28' E 121°25'151666.0
2018-Jan-12 13:58N 31°40' E 121°13'117699.7
2018-Jan-12 13:58N 31°31' E 121°21'223.8
2018-Jan-12 13:53N 31°30' E 121°22'33476.8
2018-Jan-12 13:53N 31°28' E 121°25'0 1.0
2018-Jan-12 13:30N 31°28' E 121°25'151666.0
2018-Jan-12 13:30N 31°40' E 121°13'91178.3
2018-Jan-12 13:29N 31°33' E 121°20'111401.7
2018-Jan-12 13:29N 31°41' E 121°12'896.0
2018-Jan-12 13:24N 31°35' E 121°18'752.8
2018-Jan-12 13:17N 31°30' E 121°22'334.3
2018-Jan-12 13:12N 31°28' E 121°25'1579.9
2018-Jan-12 13:00N 31°40' E 121°13'13580.2
2018-Jan-12 12:59N 31°30' E 121°22'32396.6
2018-Jan-12 12:59N 31°28' E 121°25'119885.6
2018-Jan-12 12:59N 31°36' E 121°16'610170.8
2018-Jan-12 12:59N 31°41' E 121°12'91219.4
2018-Jan-12 12:58N 31°34' E 121°18'8203.3
2018-Jan-12 12:56N 31°28' E 121°25'1331.7
2018-Jan-12 12:30N 31°38' E 121°14'4167.9
2018-Jan-12 12:29N 31°35' E 121°17'71153.8
2018-Jan-12 12:29N 31°30' E 121°22'374.1
2018-Jan-12 12:26N 31°28' E 121°25'151201.3
2018-Jan-12 12:26N 31°14' E 121°30'2926171.1
2018-Jan-12 12:26N 31°39' E 121°13'15403.8
2018-Jan-12 12:23N 31°28' E 121°25'1130.0
2018-Jan-12 12:00N 31°37' E 121°16'11827.3
2018-Jan-12 12:00N 31°28' E 121°25'3171.3
2018-Jan-12 11:59N 31°30' E 121°22'354.1
2018-Jan-12 11:55N 31°28' E 121°25'17368.0
2018-Jan-12 11:53N 31°41' E 121°12'2 8.2
2018-Jan-12 11:40N 31°39' E 121°13'0 0.0
2018-Jan-12 11:30N 31°39' E 121°13'15455.3
2018-Jan-12 11:28N 31°28' E 121°25'14424.0
2018-Jan-12 11:26N 31°39' E 121°14'12193.9
2018-Jan-12 11:23N 31°30' E 121°22'14161.1
2018-Jan-12 11:17N 31°41' E 121°12'17134.8
2018-Jan-12 11:10N 31°28' E 121°25'1788.4
2018-Jan-12 10:59N 31°40' E 121°11'26337.4
2018-Jan-12 10:59N 31°39' E 121°13'151165.2
2018-Jan-12 10:58N 31°28' E 121°25'15529.7
2018-Jan-12 10:56N 31°39' E 121°14'273.1
2018-Jan-12 10:54N 31°41' E 121°12'14461.0
2018-Jan-12 10:53N 31°30' E 121°22'313.4
2018-Jan-12 10:41N 31°28' E 121°25'15215.8
2018-Jan-12 10:37N 31°39' E 121°13'324.5
2018-Jan-12 10:30N 31°38' E 121°16'125502.0
2018-Jan-12 10:30N 31°28' E 121°25'031.6
2018-Jan-12 10:29N 31°28' E 121°25'3407.3
2018-Jan-12 10:29N 31°30' E 121°22'131160.8
2018-Jan-12 10:28N 31°40' E 121°12'110.1
2018-Jan-12 10:23N 31°41' E 121°12'928.3
2018-Jan-12 10:04N 31°34' E 121°19'0 4.7
2018-Jan-12 10:00N 31°34' E 121°18'8339.9
2018-Jan-12 09:59N 31°28' E 121°25'9108.2
2018-Jan-12 09:54N 31°36' E 121°18'751.9
2018-Jan-12 09:46N 31°41' E 121°12'14306.8
2018-Jan-12 09:43N 31°30' E 121°22'525.6
2018-Jan-12 09:31N 31°34' E 121°19'8956.8
2018-Jan-12 09:30N 31°28' E 121°25'17607.6
2018-Jan-12 09:28N 31°41' E 121°12'1453.8
2018-Jan-12 09:13N 31°30' E 121°22'3105.9
2018-Jan-12 09:11N 31°28' E 121°25'632.0
2018-Jan-12 09:00N 31°33' E 121°21'6440.1
2018-Jan-12 09:00N 31°28' E 121°25'0 5.9
2018-Jan-12 08:56N 31°28' E 121°25'336.9
2018-Jan-12 08:51N 31°30' E 121°22'14287.9
2018-Jan-12 08:48N 31°41' E 121°12'0 0.0
2018-Jan-12 08:30N 31°41' E 121°12'133395.7
2018-Jan-12 08:30N 31°32' E 121°23'4122.1
2018-Jan-12 08:28N 31°28' E 121°25'3134.4
2018-Jan-12 08:27N 31°30' E 121°22'598.0
2018-Jan-12 08:24N 31°28' E 121°27'3 6.6
2018-Jan-12 07:58N 31°29' E 121°24'439.9
2018-Jan-12 07:52N 31°32' E 121°21'1137.7
2018-Jan-12 07:34N 31°41' E 121°12'13212.7
2018-Jan-12 07:30N 31°31' E 121°21'4542.0
2018-Jan-12 07:30N 31°34' E 121°18'873.1
2018-Jan-12 07:23N 31°28' E 121°25'17131.6
2018-Jan-12 07:16N 31°41' E 121°12'1764.8
2018-Jan-12 07:00N 31°28' E 121°25'7363.9
2018-Jan-12 06:59N 31°33' E 121°19'52216.3
2018-Jan-12 06:59N 31°37' E 121°15'419.2
2018-Jan-12 06:45N 31°41' E 121°12'620.1
2018-Jan-12 06:27N 31°36' E 121°17'111295.7
2018-Jan-12 06:27N 31°28' E 121°25'17515.3
2018-Jan-12 06:25N 31°41' E 121°12'3 7.9
2018-Jan-12 06:00N 31°38' E 121°14'3344.1
2018-Jan-12 05:59N 31°41' E 121°12'17388.9
2018-Jan-12 05:57N 31°28' E 121°25'1636.9
2018-Jan-12 05:30N 31°40' E 121°12'1 3.7
2018-Jan-12 05:19N 31°41' E 121°12'2 7.8
2018-Jan-12 05:00N 31°41' E 121°09'5509083.4
2018-Jan-12 04:57N 22°33' E 120°20'5491645.6
2018-Jan-12 04:37N 31°41' E 121°12'17196.0
2018-Jan-12 04:31N 31°28' E 121°25'53625710.7
2018-Jan-12 04:30N 22°36' E 120°17'5474883.7
2018-Jan-12 04:23N 31°41' E 121°12'17469.7
2018-Jan-12 04:21N 31°28' E 121°25'5351528.1
2018-Jan-12 04:00N 22°37' E 120°16'5352847.8
2018-Jan-12 03:49N 31°28' E 121°25'17680.1
2018-Jan-12 03:48N 31°41' E 121°12'17131.2
2018-Jan-12 03:40N 31°28' E 121°25'0 2.2
2018-Jan-12 03:30N 31°28' E 121°25'532106430.9
2018-Jan-12 03:30N 22°40' E 120°13'54313580.6
2018-Jan-12 03:27N 31°41' E 121°12'17275.8
2018-Jan-12 03:24N 31°28' E 121°25'0 0.9
2018-Jan-12 03:00N 31°28' E 121°25'0 8.8
2018-Jan-12 02:57N 31°28' E 121°25'171189.9
2018-Jan-12 02:56N 31°41' E 121°12'1736.1
2018-Jan-12 02:29N 31°28' E 121°25'1757.7
2018-Jan-12 02:11N 31°41' E 121°12'1783.1
2018-Jan-12 01:59N 31°28' E 121°25'17170.6
2018-Jan-12 01:54N 31°41' E 121°12'17106.6
2018-Jan-12 01:44N 31°28' E 121°25'1747.4
2018-Jan-12 01:23N 31°41' E 121°12'17269.7
2018-Jan-12 01:19N 31°28' E 121°25'099.7
2018-Jan-12 01:19N 31°28' E 121°25'0 1.2
2018-Jan-12 01:00N 31°28' E 121°25'013.6
2018-Jan-12 00:59N 31°28' E 121°25'0 0.7
2018-Jan-12 00:30N 31°28' E 121°25'026.5
2018-Jan-12 00:29N 31°28' E 121°25'0 0.0
2018-Jan-12 00:00N 31°28' E 121°25'0117.8
2018-Jan-11 23:59N 31°28' E 121°25'0 0.0
2018-Jan-11 23:30N 31°28' E 121°25'0 6.6
2018-Jan-11 23:27N 31°28' E 121°25'1777.2
2018-Jan-11 23:14N 31°41' E 121°12'1766.4
2018-Jan-11 22:59N 31°28' E 121°25'072.1
2018-Jan-11 22:58N 31°28' E 121°25'17202.9
2018-Jan-11 22:54N 31°41' E 121°12'0 0.0
2018-Jan-11 22:30N 31°41' E 121°12'  
Track history (hours):
 
Tides and Currents Weather Stations Pressure Air Temp Water Temp Dewpoint Dewpoint Depression Visibility Wind Speed Wind Dir Waves Ship Positions

Su Yang Bo 001

Last reported at 2018-Jan-21 22:30 UTC. Time now 2018-Jan-21 22:37 UTC.
Position N 24°18' E 118°20'.

Length 50 m.

Type: Towing. MMSI: 200002069.

Date/timePositionNaut miles runAvg speedWind from/ knotsBaromVisibWave heightAir tempDewpointWater temp
2018-Jan-21 22:30N 24°18' E 118°20'4612058.1
2018-Jan-21 22:16N 31°30' E 121°24'4611715.6
2018-Jan-21 22:00N 24°18' E 118°22'761128.5
2018-Jan-21 21:56N 23°34' E 119°29'4887543.5
2018-Jan-21 21:52N 31°32' E 121°20'4621198.7
2018-Jan-21 21:29N 24°18' E 118°19'762349.9
2018-Jan-21 21:27N 23°37' E 119°28'4833387.0
2018-Jan-21 21:19N 31°28' E 121°25'14269.8
2018-Jan-21 21:16N 31°15' E 121°30'4491748.6
2018-Jan-21 21:00N 24°18' E 118°21'44846120.3
2018-Jan-21 21:00N 31°14' E 121°29'448912.8
2018-Jan-21 20:30N 24°18' E 118°23'46118845.1
2018-Jan-21 20:29N 31°30' E 121°24'4148.4
2018-Jan-21 20:27N 31°32' E 121°20'20396.2
2018-Jan-21 20:24N 31°14' E 121°29'4481126.8
2018-Jan-21 20:00N 24°18' E 118°21'2 3.6
2018-Jan-21 19:29N 24°18' E 118°19'4622680.1
2018-Jan-21 19:19N 31°30' E 121°24'4621482.8
2018-Jan-21 19:00N 24°18' E 118°18'3 6.2
2018-Jan-21 18:30N 24°18' E 118°14'4621425.5
2018-Jan-21 18:11N 31°28' E 121°25'686.2
2018-Jan-21 18:06N 31°32' E 121°20'4654606.8
2018-Jan-21 18:00N 24°19' E 118°10'4633599.0
2018-Jan-21 17:53N 31°28' E 121°25'2420.5
2018-Jan-21 16:43N 31°10' E 121°07'0 0.0
2018-Jan-21 16:30N 31°10' E 121°07'24264.3
2018-Jan-21 16:25N 31°28' E 121°25'0 0.0
2018-Jan-21 15:59N 31°28' E 121°25'24667.4
2018-Jan-21 15:57N 31°10' E 121°07'2447.6
2018-Jan-21 15:27N 31°28' E 121°25'0 0.0
2018-Jan-21 15:00N 31°28' E 121°25'0 0.0
2018-Jan-21 14:23N 31°28' E 121°25'0 0.0
2018-Jan-21 13:58N 31°28' E 121°25'0 0.0
2018-Jan-21 13:29N 31°28' E 121°25'947.9
2018-Jan-21 13:18N 31°35' E 121°19'1 3.4
2018-Jan-21 12:56N 31°34' E 121°20'739.3
2018-Jan-21 12:44N 31°28' E 121°25'624.8
2018-Jan-21 12:30N 31°33' E 121°21'640.4
2018-Jan-21 12:22N 31°28' E 121°25'0 0.0
2018-Jan-21 12:00N 31°28' E 121°25'316.0
2018-Jan-21 11:49N 31°30' E 121°22'274.0
2018-Jan-21 11:48N 31°30' E 121°24'2 5.1
2018-Jan-21 11:28N 31°28' E 121°25'224.5
2018-Jan-21 11:24N 31°30' E 121°24'2 3.4
2018-Jan-21 10:54N 31°28' E 121°25'224.5
2018-Jan-21 10:50N 31°30' E 121°24'2 4.9
2018-Jan-21 10:29N 31°28' E 121°25'117.5
2018-Jan-21 10:26N 31°29' E 121°24'1 2.7
2018-Jan-21 10:11N 31°30' E 121°24'0 0.3
2018-Jan-21 09:59N 31°30' E 121°24'2288.7
2018-Jan-21 09:58N 31°28' E 121°25'0 0.0
2018-Jan-21 09:30N 31°28' E 121°25'0 0.0
2018-Jan-21 09:00N 31°28' E 121°25'538677.9
2018-Jan-21 08:13N 22°33' E 120°20'5385664.9
2018-Jan-21 08:07N 31°28' E 121°25'5384843.6
2018-Jan-21 08:00N 22°33' E 120°20'53810763.6
2018-Jan-21 07:57N 31°28' E 121°25'5381192.6
2018-Jan-21 07:30N 22°34' E 120°17'53924574.6
2018-Jan-21 07:29N 31°30' E 121°24'2320.2
2018-Jan-21 07:29N 31°28' E 121°25'2 3.7
2018-Jan-21 07:00N 31°30' E 121°24'2122.8
2018-Jan-21 06:59N 31°28' E 121°25'537214705.2
2018-Jan-21 06:59N 22°35' E 120°16'5371232.4
2018-Jan-21 06:33N 31°29' E 121°26'123.2
2018-Jan-21 06:30N 31°28' E 121°25'53997096.9
2018-Jan-21 06:30N 22°32' E 120°17'54012302.7
2018-Jan-21 06:27N 31°29' E 121°25'1 1.5
2018-Jan-21 05:59N 31°28' E 121°25'5421950849.9
2018-Jan-21 05:59N 22°30' E 120°17'544217414.6
2018-Jan-21 05:59N 31°30' E 121°24'184.8
2018-Jan-21 05:59N 31°30' E 121°23'1262.0
2018-Jan-21 05:47N 31°39' E 121°14'12127.4
2018-Jan-21 05:41N 31°30' E 121°23'316.1
2018-Jan-21 05:30N 31°28' E 121°25'43532.1
2018-Jan-21 05:30N 31°31' E 121°21'54436272.6
2018-Jan-21 05:29N 22°30' E 120°17'550104266.8
2018-Jan-21 05:29N 31°38' E 121°16'1225.5
2018-Jan-21 05:00N 31°28' E 121°25'9658.2
2018-Jan-21 05:00N 31°35' E 121°19'544326620.5
2018-Jan-21 04:59N 22°33' E 120°19'54215372.9
2018-Jan-21 04:57N 31°33' E 121°20'539.5
2018-Jan-21 04:50N 31°30' E 121°24'722.8
2018-Jan-21 04:30N 31°35' E 121°18'41106.3
2018-Jan-21 04:30N 31°33' E 121°21'59285.3
2018-Jan-21 04:30N 31°28' E 121°25'6228.5
2018-Jan-21 04:29N 31°32' E 121°20'428.9
2018-Jan-21 04:20N 31°30' E 121°24'619.7
2018-Jan-21 04:00N 31°34' E 121°18'85636.7
2018-Jan-21 04:00N 31°28' E 121°25'3226.4
2018-Jan-21 04:00N 31°31' E 121°25'11120.7
2018-Jan-21 04:00N 31°30' E 121°24'111.5
2018-Jan-21 03:57N 31°29' E 121°24'12937.7
2018-Jan-21 03:56N 31°38' E 121°14'4694371.7
2018-Jan-21 03:49N 24°19' E 118°07'4681405.8
2018-Jan-21 03:29N 31°36' E 121°16'4689906.8
2018-Jan-21 03:27N 24°19' E 118°07'46413816.4
2018-Jan-21 03:25N 31°31' E 121°22'247.2
2018-Jan-21 03:22N 31°30' E 121°24'2 9.0
2018-Jan-21 03:11N 31°28' E 121°25'0 0.0
2018-Jan-21 02:57N 31°28' E 121°25'222.1
2018-Jan-21 02:53N 31°30' E 121°24'5148.8
2018-Jan-21 02:51N 31°33' E 121°19'522.8
2018-Jan-21 02:38N 31°29' E 121°23'214.6
2018-Jan-21 02:30N 31°28' E 121°25'3109.5
2018-Jan-21 02:29N 31°30' E 121°23'772.8
2018-Jan-21 02:23N 31°35' E 121°17'82563.0
2018-Jan-21 02:23N 31°29' E 121°23'117.4
2018-Jan-21 02:19N 31°30' E 121°24'2 5.3
2018-Jan-21 02:00N 31°28' E 121°25'2289.4
2018-Jan-21 01:59N 31°30' E 121°24'1223.9
2018-Jan-21 01:59N 31°29' E 121°23'2 3.8
2018-Jan-21 01:30N 31°28' E 121°25'2 8.4
2018-Jan-21 01:18N 31°30' E 121°24'12225.7
2018-Jan-21 01:15N 31°38' E 121°14'1451.3
2018-Jan-21 00:59N 31°28' E 121°25'141874.6
2018-Jan-21 00:58N 31°38' E 121°14'124357.0
2018-Jan-21 00:58N 31°30' E 121°24'1327.8
2018-Jan-21 00:30N 31°39' E 121°14'15463.9
2018-Jan-21 00:28N 31°28' E 121°25'2355.1
2018-Jan-21 00:28N 31°30' E 121°24'110.7
2018-Jan-21 00:21N 31°29' E 121°23'2 5.3
2018-Jan-21 00:00N 31°28' E 121°25'242.5
2018-Jan-20 23:58N 31°30' E 121°24'13133.6
2018-Jan-20 23:52N 31°40' E 121°14'1541.4
2018-Jan-20 23:30N 31°28' E 121°25'15268.4
2018-Jan-20 23:27N 31°40' E 121°14'13334.4
2018-Jan-20 23:24N 31°29' E 121°23'112.4
2018-Jan-20 23:19N 31°30' E 121°24'4871896.2
2018-Jan-20 23:03N 23°34' E 119°29'48610166.5
2018-Jan-20 23:00N 31°28' E 121°25'210.0
2018-Jan-20 22:50N 31°30' E 121°24'151.1
2018-Jan-20 22:49N 31°29' E 121°23'48714734.7
2018-Jan-20 22:47N 23°33' E 119°31'4861757.6
2018-Jan-20 22:30N 31°28' E 121°25'48530627.9
2018-Jan-20 22:29N 23°34' E 119°33'48622450.7
2018-Jan-20 22:28N 31°30' E 121°24'4861033.5
2018-Jan-20 22:00N 23°34' E 119°35'48613662.3
2018-Jan-20 21:58N 31°30' E 121°24'2260.6
2018-Jan-20 21:57N 31°28' E 121°25'2 4.1
2018-Jan-20 21:30N 31°29' E 121°23'2353.9
2018-Jan-20 21:30N 31°28' E 121°25'0 0.0
2018-Jan-20 20:59N 31°28' E 121°25'2 6.1
2018-Jan-20 20:41N 31°29' E 121°23'132250.8
2018-Jan-20 20:41N 31°40' E 121°14'13274.0
2018-Jan-20 20:38N 31°30' E 121°24'214.3
2018-Jan-20 20:30N 31°28' E 121°25'217.6
2018-Jan-20 20:24N 31°28' E 121°27'46366676.8
2018-Jan-20 20:24N 24°15' E 118°21'46411605.2
2018-Jan-20 20:22N 31°30' E 121°24'4641304.7
2018-Jan-20 20:00N 24°16' E 118°18'463104066.2
2018-Jan-20 20:00N 31°28' E 121°25'114.5
2018-Jan-20 19:57N 31°29' E 121°25'168.0
2018-Jan-20 19:56N 31°30' E 121°24'13207.6
2018-Jan-20 19:53N 31°39' E 121°13'4681254.6
2018-Jan-20 19:30N 24°18' E 118°14'463208411.7
2018-Jan-20 19:30N 31°30' E 121°23'393.8
2018-Jan-20 19:28N 31°28' E 121°25'245.3
2018-Jan-20 19:26N 31°30' E 121°24'131111.2
2018-Jan-20 19:25N 31°39' E 121°13'1535.2
2018-Jan-20 19:01N 31°28' E 121°25'5763.3
2018-Jan-20 19:00N 31°32' E 121°21'10141.5
2018-Jan-20 18:56N 31°40' E 121°13'13661.5
2018-Jan-20 18:55N 31°30' E 121°24'2 4.3
2018-Jan-20 18:30N 31°28' E 121°25'76612.3
2018-Jan-20 18:30N 31°34' E 121°19'8218.7
2018-Jan-20 18:28N 31°40' E 121°13'13603.6
2018-Jan-20 18:27N 31°30' E 121°24'1329.7
2018-Jan-20 18:00N 31°40' E 121°13'51751.6
2018-Jan-20 17:59N 31°35' E 121°17'10811.1
2018-Jan-20 17:59N 31°28' E 121°25'221.1
2018-Jan-20 17:54N 31°30' E 121°24'1 3.6
2018-Jan-20 17:35N 31°29' E 121°23'218.2
2018-Jan-20 17:29N 31°28' E 121°25'15440.5
2018-Jan-20 17:27N 31°40' E 121°13'2107.3
2018-Jan-20 17:25N 31°38' E 121°15'11993.5
2018-Jan-20 17:25N 31°30' E 121°24'2 4.3
2018-Jan-20 17:00N 31°28' E 121°25'274.9
2018-Jan-20 16:59N 31°30' E 121°24'13261.0
2018-Jan-20 16:56N 31°40' E 121°13'1237.1
2018-Jan-20 16:36N 31°30' E 121°23'0 0.1
2018-Jan-20 16:30N 31°30' E 121°23'31143.5
2018-Jan-20 16:30N 31°28' E 121°25'16196.5
2018-Jan-20 16:25N 31°40' E 121°12'14582.1
2018-Jan-20 16:24N 31°30' E 121°24'2 4.3
2018-Jan-20 16:00N 31°28' E 121°25'256.8
2018-Jan-20 15:58N 31°30' E 121°24'2 3.3
2018-Jan-20 15:28N 31°28' E 121°25'22005.1
2018-Jan-20 15:28N 31°30' E 121°24'2 3.7
2018-Jan-20 15:01N 31°28' E 121°25'221.1
2018-Jan-20 14:56N 31°30' E 121°24'2 3.8
2018-Jan-20 14:29N 31°28' E 121°25'215.9
2018-Jan-20 14:23N 31°30' E 121°24'0 0.0
2018-Jan-20 14:00N 31°30' E 121°24'2299.7
2018-Jan-20 14:00N 31°28' E 121°25'0 0.0
2018-Jan-20 13:30N 31°28' E 121°25'233.8
2018-Jan-20 13:27N 31°30' E 121°24'110.5
2018-Jan-20 13:20N 31°29' E 121°23'120.7
2018-Jan-20 13:17N 31°30' E 121°23'310.0
2018-Jan-20 13:00N 31°28' E 121°25'3115.9
2018-Jan-20 12:59N 31°30' E 121°23'1 6.9
2018-Jan-20 12:50N 31°29' E 121°23'116.3
2018-Jan-20 12:46N 31°30' E 121°24'0 0.0
2018-Jan-20 12:30N 31°30' E 121°24'26015.3
2018-Jan-20 12:30N 31°28' E 121°25'0 0.0
2018-Jan-20 12:00N 31°28' E 121°25'2201.2
2018-Jan-20 12:00N 31°30' E 121°24'198.7
2018-Jan-20 11:59N 31°29' E 121°23'2 3.9
2018-Jan-20 11:30N 31°28' E 121°25'260.7
2018-Jan-20 11:28N 31°29' E 121°23'112.7
2018-Jan-20 11:23N 31°30' E 121°24'2 4.3
2018-Jan-20 10:59N 31°28' E 121°25'275.5
2018-Jan-20 10:58N 31°30' E 121°24'147.2
2018-Jan-20 10:56N 31°29' E 121°23'2 4.3
2018-Jan-20 10:30N 31°28' E 121°25'241.5
2018-Jan-20 10:28N 31°30' E 121°24'2 3.7
2018-Jan-20 10:00N 31°28' E 121°25'228.9
2018-Jan-20 09:57N 31°30' E 121°24'2 4.7
2018-Jan-20 09:37N 31°30' E 121°23'324.1
2018-Jan-20 09:30N 31°28' E 121°25'223.0
2018-Jan-20 09:26N 31°30' E 121°24'2 3.8
2018-Jan-20 09:01N 31°30' E 121°23'3183.5
2018-Jan-20 09:00N 31°28' E 121°25'224.0
2018-Jan-20 08:56N 31°30' E 121°24'2 3.7
2018-Jan-20 08:27N 31°28' E 121°25'215.0
2018-Jan-20 08:20N 31°30' E 121°24'2 5.4
2018-Jan-20 08:00N 31°28' E 121°25'234.4
2018-Jan-20 07:57N 31°30' E 121°24'164.2
2018-Jan-20 07:56N 31°29' E 121°23'1 2.6
2018-Jan-20 07:30N 31°30' E 121°24'2103.6
2018-Jan-20 07:29N 31°28' E 121°25'219.4
2018-Jan-20 07:23N 31°29' E 121°23'2 4.8
2018-Jan-20 07:00N 31°28' E 121°25'228.5
2018-Jan-20 06:56N 31°29' E 121°23'129.6
2018-Jan-20 06:54N 31°30' E 121°24'4882333.1
2018-Jan-20 06:41N 23°33' E 119°29'4862449.4
2018-Jan-20 06:29N 31°28' E 121°25'2 5.2
2018-Jan-20 06:09N 31°30' E 121°24'212.4
2018-Jan-20 06:00N 31°28' E 121°25'46240555.6
2018-Jan-20 06:00N 24°24' E 117°58'4634107.5
2018-Jan-20 05:53N 31°30' E 121°24'1250.6
2018-Jan-20 05:39N 31°39' E 121°15'1391.0
2018-Jan-20 05:30N 31°28' E 121°25'122762.6
2018-Jan-20 05:30N 31°38' E 121°16'11309.3
2018-Jan-20 05:28N 31°30' E 121°24'1111.3
2018-Jan-20 05:27N 31°30' E 121°23'1 6.9
2018-Jan-20 05:17N 31°29' E 121°23'4626395.2
2018-Jan-20 05:13N 24°18' E 118°17'4612171.1
2018-Jan-20 05:00N 31°28' E 121°25'461110549.1
2018-Jan-20 05:00N 24°18' E 118°18'46598460.6
2018-Jan-20 05:00N 31°35' E 121°19'6742.5
2018-Jan-20 04:59N 31°30' E 121°23'143.8
2018-Jan-20 04:57N 31°30' E 121°24'157.5
2018-Jan-20 04:56N 31°29' E 121°23'3 7.6
2018-Jan-20 04:30N 31°32' E 121°22'46233958.2
2018-Jan-20 04:29N 24°18' E 118°22'459165321.5
2018-Jan-20 04:29N 31°28' E 121°25'33446.6
2018-Jan-20 04:29N 31°30' E 121°23'111.9
2018-Jan-20 04:22N 31°30' E 121°24'4611292.9
2018-Jan-20 04:00N 24°18' E 118°20'4609800.9
2018-Jan-20 03:58N 31°28' E 121°25'222.6
2018-Jan-20 03:53N 31°30' E 121°24'2 4.6
2018-Jan-20 03:30N 31°28' E 121°25'46010552.7
2018-Jan-20 03:28N 24°18' E 118°19'4622377.3
2018-Jan-20 03:16N 31°30' E 121°24'2 6.2
2018-Jan-20 03:00N 31°28' E 121°25'46048706.7
2018-Jan-20 02:59N 24°18' E 118°20'4614024.0
2018-Jan-20 02:52N 31°29' E 121°23'110.9
2018-Jan-20 02:46N 31°30' E 121°24'2 6.5
2018-Jan-20 02:31N 31°28' E 121°25'45935959.1
2018-Jan-20 02:30N 24°18' E 118°22'46012944.6
2018-Jan-20 02:28N 31°29' E 121°25'255.3
2018-Jan-20 02:25N 31°30' E 121°23'118.7
2018-Jan-20 02:21N 31°30' E 121°24'4611346.8
2018-Jan-20 02:00N 24°18' E 118°22'45915449.2
2018-Jan-20 01:58N 31°28' E 121°25'236.2
2018-Jan-20 01:56N 31°30' E 121°24'4611086.1
2018-Jan-20 01:30N 24°18' E 118°22'459236224.7
2018-Jan-20 01:30N 31°28' E 121°25'210.2
2018-Jan-20 01:20N 31°30' E 121°24'2 5.0
2018-Jan-20 01:00N 31°28' E 121°25'460127366.4
2018-Jan-20 01:00N 24°18' E 118°20'4611928.5
2018-Jan-20 00:46N 31°30' E 121°23'113.9
2018-Jan-20 00:39N 31°30' E 121°24'211.2
2018-Jan-20 00:30N 31°28' E 121°25'288.8
2018-Jan-20 00:29N 31°30' E 121°24'46215690.5
2018-Jan-20 00:28N 24°18' E 118°18'4624548.9
2018-Jan-20 00:21N 31°32' E 121°21'513.6
2018-Jan-20 00:00N 31°28' E 121°25'46024729.3
2018-Jan-19 23:59N 24°18' E 118°20'46227695.8
2018-Jan-19 23:58N 31°30' E 121°24'1 4.8
2018-Jan-19 23:40N 31°30' E 121°23'4623030.1
2018-Jan-19 23:30N 24°18' E 118°18'4611658806.7
2018-Jan-19 23:30N 31°28' E 121°25'1191.1
2018-Jan-19 23:23N 31°36' E 121°16'985.9
2018-Jan-19 23:17N 31°30' E 121°24'2 5.8
2018-Jan-19 23:00N 31°28' E 121°25'46166314.2
2018-Jan-19 22:59N 24°18' E 118°20'46210797.0
2018-Jan-19 22:57N 31°30' E 121°24'4611042.2
2018-Jan-19 22:30N 24°18' E 118°21'4601459.3
2018-Jan-19 22:11N 31°28' E 121°25'4612487.0
2018-Jan-19 22:00N 24°18' E 118°18'4619479.3
2018-Jan-19 21:57N 31°28' E 121°25'239.1
2018-Jan-19 21:55N 31°30' E 121°24'4621128.8
2018-Jan-19 21:30N 24°18' E 118°20'46075302.9
2018-Jan-19 21:30N 31°28' E 121°25'226.4
2018-Jan-19 21:26N 31°30' E 121°24'2 3.9
2018-Jan-19 21:00N 31°28' E 121°25'46082752.9
2018-Jan-19 21:00N 24°18' E 118°22'4614882.9
2018-Jan-19 20:54N 31°30' E 121°24'1955.0
2018-Jan-19 20:33N 31°43' E 121°08'19332.2
2018-Jan-19 20:30N 31°30' E 121°24'2253.3
2018-Jan-19 20:29N 31°28' E 121°25'46031874.1
2018-Jan-19 20:29N 24°18' E 118°20'4622077.7
2018-Jan-19 20:15N 31°30' E 121°23'15756.2
2018-Jan-19 20:14N 31°41' E 121°10'1875.5
2018-Jan-19 20:00N 31°28' E 121°25'16855.6
2018-Jan-19 19:59N 31°40' E 121°13'468210701.7
2018-Jan-19 19:59N 24°18' E 118°18'4623519.1
2018-Jan-19 19:51N 31°30' E 121°24'1218.8
2018-Jan-19 19:50N 31°30' E 121°23'4631401.8
2018-Jan-19 19:30N 24°18' E 118°16'46773092.2
2018-Jan-19 19:30N 31°37' E 121°16'932.6
2018-Jan-19 19:14N 31°30' E 121°23'334.0
2018-Jan-19 19:09N 31°28' E 121°25'4623191.5
2018-Jan-19 19:00N 24°19' E 118°12'46515505.6
2018-Jan-19 18:59N 31°34' E 121°20'7476.9
2018-Jan-19 18:58N 31°28' E 121°25'17491.5
2018-Jan-19 18:56N 31°41' E 121°11'1474.7
2018-Jan-19 18:44N 31°30' E 121°23'1148.1
2018-Jan-19 18:30N 31°39' E 121°14'46973486.0
2018-Jan-19 18:30N 24°19' E 118°09'463208394.4
2018-Jan-19 18:30N 31°28' E 121°25'3227.7
2018-Jan-19 18:29N 31°30' E 121°23'493.6
2018-Jan-19 18:27N 31°28' E 121°27'4801.8
2018-Jan-19 18:26N 31°30' E 121°23'1 8.4
2018-Jan-19 18:16N 31°30' E 121°24'10140.8
2018-Jan-19 18:11N 31°37' E 121°16'1265.1
2018-Jan-19 18:00N 31°28' E 121°25'10709.1
2018-Jan-19 18:00N 31°36' E 121°17'9621.1
2018-Jan-19 17:59N 31°30' E 121°24'1101.7
2018-Jan-19 17:58N 31°29' E 121°25'101250.8
2018-Jan-19 17:57N 31°36' E 121°17'761.0
2018-Jan-19 17:50N 31°30' E 121°23'310.2
2018-Jan-19 17:32N 31°28' E 121°25'269.4
2018-Jan-19 17:30N 31°29' E 121°24'11778.5
2018-Jan-19 17:30N 31°28' E 121°25'6343.4
2018-Jan-19 17:29N 31°33' E 121°20'5269.0
2018-Jan-19 17:28N 31°30' E 121°24'53662.8
2018-Jan-19 17:28N 31°33' E 121°20'7400.3
2018-Jan-19 17:27N 31°28' E 121°25'3192.1
2018-Jan-19 17:26N 31°30' E 121°23'3 6.7
2018-Jan-19 17:00N 31°28' E 121°25'3615.3
2018-Jan-19 17:00N 31°30' E 121°23'043.0
2018-Jan-19 17:00N 31°30' E 121°22'014.1
2018-Jan-19 16:59N 31°30' E 121°23'129.6
2018-Jan-19 16:56N 31°30' E 121°24'2 4.0
2018-Jan-19 16:29N 31°28' E 121°25'5885.9
2018-Jan-19 16:29N 31°32' E 121°21'3107.4
2018-Jan-19 16:27N 31°30' E 121°24'247.1
2018-Jan-19 16:25N 31°28' E 121°25'3 9.2
2018-Jan-19 16:05N 31°30' E 121°23'455.4
2018-Jan-19 16:00N 31°33' E 121°19'51133.2
2018-Jan-19 16:00N 31°30' E 121°24'160.8
2018-Jan-19 15:59N 31°30' E 121°23'3220.4
2018-Jan-19 15:58N 31°28' E 121°25'0 5.9
2018-Jan-19 15:54N 31°28' E 121°25'1025.3
2018-Jan-19 15:30N 31°35' E 121°17'8741.7
2018-Jan-19 15:30N 31°30' E 121°24'2150.9
2018-Jan-19 15:29N 31°28' E 121°25'3246.9
2018-Jan-19 15:28N 31°30' E 121°23'1020.8
2018-Jan-19 14:59N 31°38' E 121°15'131461.3
2018-Jan-19 14:58N 31°28' E 121°25'267.1
2018-Jan-19 14:57N 31°30' E 121°24'236.6
2018-Jan-19 14:54N 31°28' E 121°25'0 0.9
2018-Jan-19 14:30N 31°28' E 121°25'237.4
2018-Jan-19 14:28N 31°30' E 121°24'123118.6
2018-Jan-19 14:28N 31°38' E 121°14'1442.8
2018-Jan-19 14:08N 31°28' E 121°25'0 0.0
2018-Jan-19 14:00N 31°28' E 121°25'14993.0
2018-Jan-19 13:59N 31°38' E 121°14'14413.8
2018-Jan-19 13:57N 31°28' E 121°25'226.8
2018-Jan-19 13:53N 31°30' E 121°24'2 4.4
2018-Jan-19 13:30N 31°28' E 121°25'14615.7
2018-Jan-19 13:29N 31°39' E 121°13'155250.3
2018-Jan-19 13:29N 31°28' E 121°25'0 1.5
2018-Jan-19 13:26N 31°28' E 121°25'2150.3
2018-Jan-19 13:25N 31°30' E 121°24'1 6.1
2018-Jan-19 13:10N 31°30' E 121°23'1376.7
2018-Jan-19 13:01N 31°40' E 121°13'152317.9
2018-Jan-19 13:00N 31°28' E 121°25'068.2
2018-Jan-19 13:00N 31°28' E 121°25'0 7.3
2018-Jan-19 12:59N 31°28' E 121°25'326.5
2018-Jan-19 12:52N 31°30' E 121°23'3 7.2
2018-Jan-19 12:29N 31°28' E 121°25'092.3
2018-Jan-19 12:29N 31°28' E 121°25'3277.0
2018-Jan-19 12:28N 31°30' E 121°23'133508.5
2018-Jan-19 12:28N 31°40' E 121°13'1431.8
2018-Jan-19 12:02N 31°30' E 121°24'239.8
2018-Jan-19 11:59N 31°28' E 121°25'046.2
2018-Jan-19 11:59N 31°28' E 121°25'16201.3
2018-Jan-19 11:54N 31°40' E 121°13'1538.3
2018-Jan-19 11:30N 31°28' E 121°25'2 9.7
2018-Jan-19 11:20N 31°30' E 121°24'215.5
2018-Jan-19 11:13N 31°28' E 121°25'16104.0
2018-Jan-19 11:04N 31°40' E 121°13'15264.8
2018-Jan-19 11:00N 31°28' E 121°25'058.8
2018-Jan-19 11:00N 31°28' E 121°25'161174.3
2018-Jan-19 10:59N 31°40' E 121°13'14107.4
2018-Jan-19 10:51N 31°30' E 121°24'117.4
2018-Jan-19 10:46N 31°30' E 121°23'310.6
2018-Jan-19 10:30N 31°28' E 121°25'15829.8
2018-Jan-19 10:29N 31°40' E 121°13'14337.4
2018-Jan-19 10:27N 31°30' E 121°24'297.2
2018-Jan-19 10:26N 31°28' E 121°25'0 0.8
2018-Jan-19 10:00N 31°28' E 121°25'152317.9
2018-Jan-19 10:00N 31°40' E 121°13'14367.0
2018-Jan-19 09:57N 31°30' E 121°24'2 9.1
2018-Jan-19 09:46N 31°28' E 121°25'0 1.0
2018-Jan-19 09:25N 31°28' E 121°25'1557.7
2018-Jan-19 09:09N 31°40' E 121°13'14398.9
2018-Jan-19 09:07N 31°30' E 121°24'214.5
2018-Jan-19 09:00N 31°28' E 121°25'289.4
2018-Jan-19 08:59N 31°30' E 121°24'14881.5
2018-Jan-19 08:58N 31°40' E 121°13'1532.8
2018-Jan-19 08:29N 31°28' E 121°25'15292.9
2018-Jan-19 08:26N 31°40' E 121°13'13171.9
2018-Jan-19 08:22N 31°30' E 121°23'3 7.1
2018-Jan-19 07:58N 31°28' E 121°25'151392.0
2018-Jan-19 07:57N 31°40' E 121°13'1685.0
2018-Jan-19 07:46N 31°28' E 121°25'329.6
2018-Jan-19 07:40N 31°30' E 121°23'366.7
2018-Jan-19 07:37N 31°28' E 121°25'320.7
2018-Jan-19 07:28N 31°30' E 121°23'131163.0
2018-Jan-19 07:27N 31°40' E 121°13'15130.1
2018-Jan-19 07:20N 31°28' E 121°25'211.5
2018-Jan-19 07:11N 31°30' E 121°24'210.1
2018-Jan-19 07:00N 31°28' E 121°25'15562.6
2018-Jan-19 06:59N 31°40' E 121°13'13796.1
2018-Jan-19 06:58N 31°30' E 121°23'117.3
2018-Jan-19 06:53N 31°30' E 121°24'2 4.3
2018-Jan-19 06:28N 31°28' E 121°25'3736.2
2018-Jan-19 06:28N 31°30' E 121°23'366.1
2018-Jan-19 06:25N 31°28' E 121°25'240.4
2018-Jan-19 06:22N 31°30' E 121°24'1457.5
2018-Jan-19 06:08N 31°40' E 121°13'15112.5
2018-Jan-19 05:59N 31°28' E 121°25'15127.1
2018-Jan-19 05:52N 31°40' E 121°13'131814.3
2018-Jan-19 05:52N 31°30' E 121°23'110.1
2018-Jan-19 05:43N 31°30' E 121°24'2 8.5
2018-Jan-19 05:30N 31°28' E 121°25'151855.9
2018-Jan-19 05:30N 31°40' E 121°13'14250.9
2018-Jan-19 05:27N 31°30' E 121°24'239.5
2018-Jan-19 05:24N 31°28' E 121°25'323.2
2018-Jan-19 05:16N 31°30' E 121°23'311.1
2018-Jan-19 05:00N 31°28' E 121°25'295.5
2018-Jan-19 04:59N 31°30' E 121°24'111.7
2018-Jan-19 04:51N 31°30' E 121°23'4489.9
2018-Jan-19 04:51N 31°34' E 121°20'9181.1
2018-Jan-19 04:48N 31°40' E 121°13'1342.8
2018-Jan-19 04:30N 31°30' E 121°23'3516.2
2018-Jan-19 04:30N 31°28' E 121°25'121428.8
2018-Jan-19 04:30N 31°37' E 121°16'10639.4
2018-Jan-19 04:29N 31°30' E 121°24'2217.8
2018-Jan-19 04:28N 31°32' E 121°22'4131.0
2018-Jan-19 04:26N 31°34' E 121°19'863.9
2018-Jan-19 04:19N 31°40' E 121°13'4705258.7
2018-Jan-19 04:14N 24°19' E 118°07'4631999.0
2018-Jan-19 04:00N 31°28' E 121°25'8517.0
2018-Jan-19 03:59N 31°35' E 121°19'467240365.5
2018-Jan-19 03:59N 24°19' E 118°08'466335320.4
2018-Jan-19 03:59N 31°32' E 121°22'277.4
2018-Jan-19 03:57N 31°30' E 121°23'1350.9
2018-Jan-19 03:57N 31°30' E 121°24'14161.4
2018-Jan-19 03:52N 31°40' E 121°13'1658.7
2018-Jan-19 03:36N 31°28' E 121°25'0 3.5
2018-Jan-19 03:30N 31°28' E 121°25'53857.9
2018-Jan-19 03:30N 31°33' E 121°21'101457.9
2018-Jan-19 03:29N 31°40' E 121°13'13259.0
2018-Jan-19 03:26N 31°30' E 121°23'163.3
2018-Jan-19 03:25N 31°30' E 121°24'226.6
2018-Jan-19 03:21N 31°28' E 121°25'0 0.4
2018-Jan-19 03:11N 31°28' E 121°25'1693.6
2018-Jan-19 03:01N 31°40' E 121°13'1513903.0
2018-Jan-19 03:00N 31°28' E 121°25'2125.3
2018-Jan-19 03:00N 31°30' E 121°24'12116.7
2018-Jan-19 03:00N 31°31' E 121°24'323.9
2018-Jan-19 02:52N 31°28' E 121°25'394.1
2018-Jan-19 02:50N 31°30' E 121°23'3 8.2
2018-Jan-19 02:30N 31°28' E 121°25'2300.8
2018-Jan-19 02:30N 31°30' E 121°24'14285.7
2018-Jan-19 02:27N 31°40' E 121°13'1360.8
2018-Jan-19 02:14N 31°30' E 121°23'312.0
2018-Jan-19 02:00N 31°28' E 121°25'256.0
2018-Jan-19 01:59N 31°30' E 121°24'14540.6
2018-Jan-19 01:57N 31°40' E 121°13'13991.5
2018-Jan-19 01:56N 31°30' E 121°23'372.2
2018-Jan-19 01:54N 31°28' E 121°25'0 0.9
2018-Jan-19 01:30N 31°28' E 121°25'249.0
2018-Jan-19 01:28N 31°30' E 121°24'1410061.5
2018-Jan-19 01:28N 31°40' E 121°13'15113.1
2018-Jan-19 01:20N 31°30' E 121°25'1160.4
2018-Jan-19 01:20N 31°30' E 121°24'1 8.7
2018-Jan-19 01:11N 31°30' E 121°23'316.0
2018-Jan-19 01:00N 31°28' E 121°25'236.9
2018-Jan-19 00:58N 31°30' E 121°24'14312.6
2018-Jan-19 00:55N 31°40' E 121°13'111104.4
2018-Jan-19 00:55N 31°32' E 121°21'580.0
2018-Jan-19 00:51N 31°28' E 121°25'215.2
2018-Jan-19 00:44N 31°30' E 121°24'226.7
2018-Jan-19 00:41N 31°30' E 121°23'314.5
2018-Jan-19 00:29N 31°28' E 121°25'151917.7
2018-Jan-19 00:29N 31°40' E 121°13'13974.4
2018-Jan-19 00:28N 31°30' E 121°24'111.9
2018-Jan-19 00:24N 31°30' E 121°24'2 4.1
2018-Jan-19 00:00N 31°28' E 121°25'15505.6
2018-Jan-18 23:58N 31°40' E 121°13'14189.7
2018-Jan-18 23:54N 31°30' E 121°24'1 4.9
2018-Jan-18 23:38N 31°31' E 121°23'0 5.1
2018-Jan-18 23:35N 31°30' E 121°23'0 3.6
2018-Jan-18 23:30N 31°31' E 121°23'3266.0
2018-Jan-18 23:29N 31°28' E 121°25'15216.4
2018-Jan-18 23:25N 31°40' E 121°13'16140.6
2018-Jan-18 23:18N 31°28' E 121°25'3114.2
2018-Jan-18 23:17N 31°30' E 121°23'310.1
2018-Jan-18 23:00N 31°28' E 121°25'46087206.4
2018-Jan-18 23:00N 24°18' E 118°20'46833683.5
2018-Jan-18 22:59N 31°40' E 121°13'152864.6
2018-Jan-18 22:59N 31°29' E 121°25'21487.9
2018-Jan-18 22:59N 31°30' E 121°23'185.6
2018-Jan-18 22:58N 31°30' E 121°24'114.2
2018-Jan-18 22:52N 31°31' E 121°23'17651.7
2018-Jan-18 22:50N 31°15' E 121°29'1441.9
2018-Jan-18 22:30N 31°28' E 121°25'156177.3
2018-Jan-18 22:30N 31°40' E 121°13'46735024.1
2018-Jan-18 22:29N 24°18' E 118°22'46114175.7
2018-Jan-18 22:27N 31°30' E 121°24'1161.2
2018-Jan-18 22:27N 31°31' E 121°23'0 4.2
2018-Jan-18 22:23N 31°30' E 121°23'0 0.8
2018-Jan-18 22:00N 31°31' E 121°23'13402.0
2018-Jan-18 21:58N 31°40' E 121°13'152058.5
2018-Jan-18 21:58N 31°28' E 121°25'360.1
2018-Jan-18 21:55N 31°30' E 121°23'2 9.9
2018-Jan-18 21:46N 31°30' E 121°24'4621771.5
2018-Jan-18 21:30N 24°18' E 118°18'468842860.6
2018-Jan-18 21:30N 31°40' E 121°13'15712.8
2018-Jan-18 21:29N 31°28' E 121°25'132.6
2018-Jan-18 21:27N 31°29' E 121°25'1 5.6
2018-Jan-18 21:18N 31°30' E 121°24'1134.2
2018-Jan-18 21:18N 31°31' E 121°23'4621528.9
2018-Jan-18 21:00N 24°18' E 118°20'46812852.3
2018-Jan-18 20:57N 31°40' E 121°13'152926.9
2018-Jan-18 20:57N 31°28' E 121°25'3179.9
2018-Jan-18 20:56N 31°31' E 121°23'2186.6
2018-Jan-18 20:56N 31°29' E 121°25'118.3
2018-Jan-18 20:53N 31°30' E 121°24'1 9.7
2018-Jan-18 20:48N 31°30' E 121°25'2 5.3
2018-Jan-18 20:30N 31°28' E 121°25'46068925.0
2018-Jan-18 20:30N 24°18' E 118°22'461127666.9
2018-Jan-18 20:30N 31°31' E 121°23'1133.3
2018-Jan-18 20:30N 31°31' E 121°23'1124.4
2018-Jan-18 20:29N 31°30' E 121°23'13713.6
2018-Jan-18 20:28N 31°40' E 121°12'15377.1
2018-Jan-18 20:26N 31°30' E 121°24'2 4.2
2018-Jan-18 20:03N 31°30' E 121°23'4618055.0
2018-Jan-18 20:00N 24°18' E 118°21'461237152.5
2018-Jan-18 20:00N 31°31' E 121°23'288.4
2018-Jan-18 19:59N 31°32' E 121°21'4713.6
2018-Jan-18 19:58N 31°28' E 121°25'3169.0
2018-Jan-18 19:57N 31°30' E 121°23'299.1
2018-Jan-18 19:56N 31°31' E 121°21'318.7
2018-Jan-18 19:46N 31°30' E 121°24'483.8
2018-Jan-18 19:43N 31°32' E 121°19'2 8.7
2018-Jan-18 19:31N 31°32' E 121°21'45311.6
2018-Jan-18 19:30N 31°28' E 121°25'6445.7
2018-Jan-18 19:30N 31°32' E 121°20'46341634.6
2018-Jan-18 19:29N 24°18' E 118°19'4626543.0
2018-Jan-18 19:25N 31°30' E 121°24'4500.0
2018-Jan-18 19:24N 31°32' E 121°19'4621166.6
2018-Jan-18 19:00N 24°18' E 118°17'46314372.7
2018-Jan-18 18:59N 31°32' E 121°21'43991.8
2018-Jan-18 18:58N 31°28' E 121°25'211.2
2018-Jan-18 18:49N 31°30' E 121°24'124.1
2018-Jan-18 18:45N 31°30' E 121°23'0 3.7
2018-Jan-18 18:41N 31°31' E 121°23'4642618.5
2018-Jan-18 18:30N 24°18' E 118°13'4657466.1
2018-Jan-18 18:27N 31°32' E 121°21'2113.8
2018-Jan-18 18:26N 31°31' E 121°23'170.5
2018-Jan-18 18:25N 31°30' E 121°24'1102.8
2018-Jan-18 18:24N 31°30' E 121°23'35169.9
2018-Jan-18 18:24N 31°28' E 121°25'0 0.0
2018-Jan-18 18:00N 31°28' E 121°25'463277934.1
2018-Jan-18 18:00N 24°19' E 118°08'4658814.5
2018-Jan-18 17:57N 31°32' E 121°21'2646.1
2018-Jan-18 17:57N 31°31' E 121°23'0 4.8
2018-Jan-18 17:54N 31°30' E 121°23'129.5
2018-Jan-18 17:51N 31°30' E 121°24'0 0.0
2018-Jan-18 17:30N 31°30' E 121°24'2198.9
2018-Jan-18 17:29N 31°28' E 121°25'4890.7
2018-Jan-18 17:29N 31°32' E 121°21'218.9
2018-Jan-18 17:24N 31°30' E 121°23'0 4.9
2018-Jan-18 17:21N 31°31' E 121°23'3 8.5
2018-Jan-18 17:00N 31°28' E 121°25'250.2
2018-Jan-18 16:58N 31°30' E 121°24'386.4
2018-Jan-18 16:56N 31°32' E 121°21'211.0
2018-Jan-18 16:48N 31°30' E 121°23'0304.4
2018-Jan-18 16:48N 31°31' E 121°23'2 5.0
2018-Jan-18 16:28N 31°32' E 121°21'4521.4
2018-Jan-18 16:27N 31°28' E 121°25'6136.5
2018-Jan-18 16:25N 31°32' E 121°20'3183.6
2018-Jan-18 16:24N 31°30' E 121°23'0 8.9
2018-Jan-18 16:22N 31°31' E 121°23'174.9
2018-Jan-18 16:21N 31°30' E 121°24'465.4
2018-Jan-18 16:17N 31°32' E 121°20'519.2
2018-Jan-18 16:00N 31°28' E 121°25'3248.1
2018-Jan-18 16:00N 31°30' E 121°23'4672.4
2018-Jan-18 15:59N 31°33' E 121°19'5527.4
2018-Jan-18 15:59N 31°30' E 121°24'53013.0
2018-Jan-18 15:59N 31°33' E 121°19'4102.4
2018-Jan-18 15:57N 31°30' E 121°22'134.9
2018-Jan-18 15:54N 31°32' E 121°22'410.3
2018-Jan-18 15:30N 31°34' E 121°18'33103.9
2018-Jan-18 15:30N 31°32' E 121°20'6575.2
2018-Jan-18 15:30N 31°28' E 121°25'21493.4
2018-Jan-18 15:30N 31°30' E 121°24'2126.3
2018-Jan-18 15:29N 31°31' E 121°22'81958.9
2018-Jan-18 15:28N 31°37' E 121°16'0 0.6
2018-Jan-18 15:00N 31°36' E 121°16'112151.3
2018-Jan-18 15:00N 31°28' E 121°25'1614003.1
2018-Jan-18 15:00N 31°40' E 121°12'8539.5
2018-Jan-18 14:59N 31°34' E 121°18'2153.2
2018-Jan-18 14:59N 31°33' E 121°20'5127.2
2018-Jan-18 14:56N 31°30' E 121°24'216.2
2018-Jan-18 14:50N 31°29' E 121°26'1 2.5
2018-Jan-18 14:30N 31°28' E 121°25'11814.5
2018-Jan-18 14:29N 31°36' E 121°16'195.7
2018-Jan-18 14:28N 31°36' E 121°17'213.1
2018-Jan-18 14:19N 31°34' E 121°19'63259.3
2018-Jan-18 14:19N 31°30' E 121°24'341.3
2018-Jan-18 14:14N 31°31' E 121°21'2 8.4
2018-Jan-18 14:00N 31°33' E 121°20'6351.7
2018-Jan-18 13:59N 31°28' E 121°25'2738.8
2018-Jan-18 13:59N 31°30' E 121°24'13706.4
2018-Jan-18 13:58N 31°39' E 121°14'3 7.2
2018-Jan-18 13:30N 31°36' E 121°16'9158.8
2018-Jan-18 13:26N 31°30' E 121°24'2 3.8
2018-Jan-18 13:00N 31°28' E 121°25'219.3
2018-Jan-18 12:55N 31°30' E 121°24'1 8.5
2018-Jan-18 12:51N 31°29' E 121°24'13430.8
2018-Jan-18 12:49N 31°39' E 121°13'1544.7
2018-Jan-18 12:29N 31°28' E 121°25'2285.4
2018-Jan-18 12:29N 31°30' E 121°24'1362.6
2018-Jan-18 12:16N 31°39' E 121°13'1335.6
2018-Jan-18 11:54N 31°30' E 121°24'2348.9
2018-Jan-18 11:54N 31°28' E 121°25'0 0.0
2018-Jan-18 11:30N 31°28' E 121°25'2 8.6
2018-Jan-18 11:19N 31°30' E 121°24'2 5.4
2018-Jan-18 11:00N 31°28' E 121°25'216.7
2018-Jan-18 10:54N 31°30' E 121°24'2 4.1
2018-Jan-18 10:30N 31°28' E 121°25'2 6.2
2018-Jan-18 10:14N 31°30' E 121°24'2 6.8
2018-Jan-18 09:59N 31°28' E 121°25'217.7
2018-Jan-18 09:54N 31°30' E 121°24'0 0.0
2018-Jan-18 09:30N 31°30' E 121°24'254.1
2018-Jan-18 09:29N 31°28' E 121°25'0 0.0
2018-Jan-18 09:00N 31°28' E 121°25'2 6.4
2018-Jan-18 08:44N 31°30' E 121°24'2 7.0
2018-Jan-18 08:30N 31°28' E 121°25'211.7
2018-Jan-18 08:22N 31°30' E 121°24'2 4.2
2018-Jan-18 07:58N 31°28' E 121°25'217.0
2018-Jan-18 07:52N 31°30' E 121°24'14219.1
2018-Jan-18 07:48N 31°40' E 121°13'1545.2
2018-Jan-18 07:28N 31°28' E 121°25'217.8
2018-Jan-18 07:22N 31°30' E 121°24'14134.9
2018-Jan-18 07:16N 31°40' E 121°13'1556.6
2018-Jan-18 06:59N 31°28' E 121°25'232.3
2018-Jan-18 06:56N 31°30' E 121°24'2 4.1
2018-Jan-18 06:30N 31°28' E 121°25'211.0
2018-Jan-18 06:21N 31°30' E 121°24'2 5.2
2018-Jan-18 06:00N 31°28' E 121°25'0 0.0
2018-Jan-18 05:30N 31°28' E 121°25'15118.7
2018-Jan-18 05:22N 31°40' E 121°13'1540.3
2018-Jan-18 04:59N 31°28' E 121°25'0 0.0
2018-Jan-18 04:30N 31°28' E 121°25'2 3.0
2018-Jan-18 03:56N 31°30' E 121°24'226.0
2018-Jan-18 03:52N 31°28' E 121°25'932.9
2018-Jan-18 03:37N 31°35' E 121°18'977.0
2018-Jan-18 03:30N 31°28' E 121°25'81402.3
2018-Jan-18 03:30N 31°34' E 121°19'679.8
2018-Jan-18 03:25N 31°30' E 121°24'57285.1
2018-Jan-18 03:13N 31°60' E 120°27'54260.1
2018-Jan-18 03:00N 31°32' E 121°22'545001.0
2018-Jan-18 03:00N 31°59' E 120°27'5829840.2
2018-Jan-18 03:00N 31°28' E 121°25'2464.8
2018-Jan-18 02:59N 31°30' E 121°24'58112.5
2018-Jan-18 02:29N 31°58' E 120°25'59979.1
2018-Jan-18 02:25N 31°28' E 121°25'0 0.0
2018-Jan-18 01:58N 31°28' E 121°25'2105.5
2018-Jan-18 01:57N 31°30' E 121°24'2 3.5
2018-Jan-18 01:30N 31°28' E 121°25'213.9
2018-Jan-18 01:23N 31°30' E 121°24'2 4.2
2018-Jan-18 01:00N 31°28' E 121°25'237.1
2018-Jan-18 00:57N 31°30' E 121°24'8693199.3
2018-Jan-18 00:41N 20°15' E 111°16'8681263.4
2018-Jan-17 23:59N 31°28' E 121°25'0 0.0
2018-Jan-17 23:57N 31°28' E 121°25'2 3.3
2018-Jan-17 23:27N 31°30' E 121°24'  
2018-Jan-12 14:59N 31°29' E 121°24'1135.3
2018-Jan-12 14:59N 31°28' E 121°25'2758.9
2018-Jan-12 14:59N 31°30' E 121°23'131069.6
2018-Jan-12 14:58N 31°40' E 121°13'15994.8
2018-Jan-12 14:57N 31°28' E 121°25'17326.2
2018-Jan-12 14:54N 31°41' E 121°12'1465.3
2018-Jan-12 14:41N 31°30' E 121°22'0 2.7
2018-Jan-12 14:30N 31°30' E 121°22'1401.2
2018-Jan-12 14:30N 31°31' E 121°21'121531.4
2018-Jan-12 14:29N 31°41' E 121°12'171069.6
2018-Jan-12 14:29N 31°28' E 121°25'028.8
2018-Jan-12 14:28N 31°28' E 121°25'15214.3
2018-Jan-12 14:23N 31°40' E 121°13'1360.8
2018-Jan-12 14:11N 31°30' E 121°22'422.5
2018-Jan-12 14:00N 31°33' E 121°19'10748.2
2018-Jan-12 14:00N 31°41' E 121°12'171152.2
2018-Jan-12 13:59N 31°28' E 121°25'151666.0
2018-Jan-12 13:58N 31°40' E 121°13'117699.7
2018-Jan-12 13:58N 31°31' E 121°21'223.8
2018-Jan-12 13:53N 31°30' E 121°22'33476.8
2018-Jan-12 13:53N 31°28' E 121°25'0 1.0
2018-Jan-12 13:30N 31°28' E 121°25'151666.0
2018-Jan-12 13:30N 31°40' E 121°13'91178.3
2018-Jan-12 13:29N 31°33' E 121°20'111401.7
2018-Jan-12 13:29N 31°41' E 121°12'896.0
2018-Jan-12 13:24N 31°35' E 121°18'752.8
2018-Jan-12 13:17N 31°30' E 121°22'334.3
2018-Jan-12 13:12N 31°28' E 121°25'1579.9
2018-Jan-12 13:00N 31°40' E 121°13'13580.2
2018-Jan-12 12:59N 31°30' E 121°22'32396.6
2018-Jan-12 12:59N 31°28' E 121°25'119885.6
2018-Jan-12 12:59N 31°36' E 121°16'610170.8
2018-Jan-12 12:59N 31°41' E 121°12'91219.4
2018-Jan-12 12:58N 31°34' E 121°18'8203.3
2018-Jan-12 12:56N 31°28' E 121°25'1331.7
2018-Jan-12 12:30N 31°38' E 121°14'4167.9
2018-Jan-12 12:29N 31°35' E 121°17'71153.8
2018-Jan-12 12:29N 31°30' E 121°22'374.1
2018-Jan-12 12:26N 31°28' E 121°25'151201.3
2018-Jan-12 12:26N 31°14' E 121°30'2926171.1
2018-Jan-12 12:26N 31°39' E 121°13'15403.8
2018-Jan-12 12:23N 31°28' E 121°25'1130.0
2018-Jan-12 12:00N 31°37' E 121°16'11827.3
2018-Jan-12 12:00N 31°28' E 121°25'3171.3
2018-Jan-12 11:59N 31°30' E 121°22'354.1
2018-Jan-12 11:55N 31°28' E 121°25'17368.0
2018-Jan-12 11:53N 31°41' E 121°12'2 8.2
2018-Jan-12 11:40N 31°39' E 121°13'0 0.0
2018-Jan-12 11:30N 31°39' E 121°13'15455.3
2018-Jan-12 11:28N 31°28' E 121°25'14424.0
2018-Jan-12 11:26N 31°39' E 121°14'12193.9
2018-Jan-12 11:23N 31°30' E 121°22'14161.1
2018-Jan-12 11:17N 31°41' E 121°12'17134.8
2018-Jan-12 11:10N 31°28' E 121°25'1788.4
2018-Jan-12 10:59N 31°40' E 121°11'26337.4
2018-Jan-12 10:59N 31°39' E 121°13'151165.2
2018-Jan-12 10:58N 31°28' E 121°25'15529.7
2018-Jan-12 10:56N 31°39' E 121°14'273.1
2018-Jan-12 10:54N 31°41' E 121°12'14461.0
2018-Jan-12 10:53N 31°30' E 121°22'313.4
2018-Jan-12 10:41N 31°28' E 121°25'15215.8
2018-Jan-12 10:37N 31°39' E 121°13'324.5
2018-Jan-12 10:30N 31°38' E 121°16'125502.0
2018-Jan-12 10:30N 31°28' E 121°25'031.6
2018-Jan-12 10:29N 31°28' E 121°25'3407.3
2018-Jan-12 10:29N 31°30' E 121°22'131160.8
2018-Jan-12 10:28N 31°40' E 121°12'110.1
2018-Jan-12 10:23N 31°41' E 121°12'928.3
2018-Jan-12 10:04N 31°34' E 121°19'0 4.7
2018-Jan-12 10:00N 31°34' E 121°18'8339.9
2018-Jan-12 09:59N 31°28' E 121°25'9108.2
2018-Jan-12 09:54N 31°36' E 121°18'751.9
2018-Jan-12 09:46N 31°41' E 121°12'14306.8
2018-Jan-12 09:43N 31°30' E 121°22'525.6
2018-Jan-12 09:31N 31°34' E 121°19'8956.8
2018-Jan-12 09:30N 31°28' E 121°25'17607.6
2018-Jan-12 09:28N 31°41' E 121°12'1453.8
2018-Jan-12 09:13N 31°30' E 121°22'3105.9
2018-Jan-12 09:11N 31°28' E 121°25'632.0
2018-Jan-12 09:00N 31°33' E 121°21'6440.1
2018-Jan-12 09:00N 31°28' E 121°25'0 5.9
2018-Jan-12 08:56N 31°28' E 121°25'336.9
2018-Jan-12 08:51N 31°30' E 121°22'14287.9
2018-Jan-12 08:48N 31°41' E 121°12'0 0.0
2018-Jan-12 08:30N 31°41' E 121°12'133395.7
2018-Jan-12 08:30N 31°32' E 121°23'4122.1
2018-Jan-12 08:28N 31°28' E 121°25'3134.4
2018-Jan-12 08:27N 31°30' E 121°22'598.0
2018-Jan-12 08:24N 31°28' E 121°27'3 6.6
2018-Jan-12 07:58N 31°29' E 121°24'439.9
2018-Jan-12 07:52N 31°32' E 121°21'1137.7
2018-Jan-12 07:34N 31°41' E 121°12'13212.7
2018-Jan-12 07:30N 31°31' E 121°21'4542.0
2018-Jan-12 07:30N 31°34' E 121°18'873.1
2018-Jan-12 07:23N 31°28' E 121°25'17131.6
2018-Jan-12 07:16N 31°41' E 121°12'1764.8
2018-Jan-12 07:00N 31°28' E 121°25'7363.9
2018-Jan-12 06:59N 31°33' E 121°19'52216.3
2018-Jan-12 06:59N 31°37' E 121°15'419.2
2018-Jan-12 06:45N 31°41' E 121°12'620.1
2018-Jan-12 06:27N 31°36' E 121°17'111295.7
2018-Jan-12 06:27N 31°28' E 121°25'17515.3
2018-Jan-12 06:25N 31°41' E 121°12'3 7.9
2018-Jan-12 06:00N 31°38' E 121°14'3344.1
2018-Jan-12 05:59N 31°41' E 121°12'17388.9
2018-Jan-12 05:57N 31°28' E 121°25'1636.9
2018-Jan-12 05:30N 31°40' E 121°12'1 3.7
2018-Jan-12 05:19N 31°41' E 121°12'2 7.8
2018-Jan-12 05:00N 31°41' E 121°09'5509083.4
2018-Jan-12 04:57N 22°33' E 120°20'5491645.6
2018-Jan-12 04:37N 31°41' E 121°12'17196.0
2018-Jan-12 04:31N 31°28' E 121°25'53625710.7
2018-Jan-12 04:30N 22°36' E 120°17'5474883.7
2018-Jan-12 04:23N 31°41' E 121°12'17469.7
2018-Jan-12 04:21N 31°28' E 121°25'5351528.1
2018-Jan-12 04:00N 22°37' E 120°16'5352847.8
2018-Jan-12 03:49N 31°28' E 121°25'17680.1
2018-Jan-12 03:48N 31°41' E 121°12'17131.2
2018-Jan-12 03:40N 31°28' E 121°25'0 2.2
2018-Jan-12 03:30N 31°28' E 121°25'532106430.9
2018-Jan-12 03:30N 22°40' E 120°13'54313580.6
2018-Jan-12 03:27N 31°41' E 121°12'17275.8
2018-Jan-12 03:24N 31°28' E 121°25'0 0.9
2018-Jan-12 03:00N 31°28' E 121°25'0 8.8
2018-Jan-12 02:57N 31°28' E 121°25'171189.9
2018-Jan-12 02:56N 31°41' E 121°12'1736.1
2018-Jan-12 02:29N 31°28' E 121°25'1757.7
2018-Jan-12 02:11N 31°41' E 121°12'1783.1
2018-Jan-12 01:59N 31°28' E 121°25'17170.6
2018-Jan-12 01:54N 31°41' E 121°12'17106.6
2018-Jan-12 01:44N 31°28' E 121°25'1747.4
2018-Jan-12 01:23N 31°41' E 121°12'17269.7
2018-Jan-12 01:19N 31°28' E 121°25'099.7
2018-Jan-12 01:19N 31°28' E 121°25'0 1.2
2018-Jan-12 01:00N 31°28' E 121°25'013.6
2018-Jan-12 00:59N 31°28' E 121°25'0 0.7
2018-Jan-12 00:30N 31°28' E 121°25'026.5
2018-Jan-12 00:29N 31°28' E 121°25'0 0.0
2018-Jan-12 00:00N 31°28' E 121°25'0117.8
2018-Jan-11 23:59N 31°28' E 121°25'0 0.0
2018-Jan-11 23:30N 31°28' E 121°25'0 6.6
2018-Jan-11 23:27N 31°28' E 121°25'1777.2
2018-Jan-11 23:14N 31°41' E 121°12'1766.4
2018-Jan-11 22:59N 31°28' E 121°25'072.1
2018-Jan-11 22:58N 31°28' E 121°25'17202.9
2018-Jan-11 22:54N 31°41' E 121°12'0 0.0
2018-Jan-11 22:30N 31°41' E 121°12'  

Dump ship's entire track history